<?xml version="1.0" encoding="UTF-8" standalone="no" ?>
<gpx xmlns="http://www.topografix.com/GPX/1/1" xmlns:xsi="http://www.w3.org/2001/XMLSchema-instance" xsi:schemaLocation="http://www.topografix.com/GPX/1/1 http://www.topografix.com/GPX/1/1/gpx.xsd" version="1.1" creator="VisuGPX - https://www.visugpx.com">
  <metadata>
    <name>De Ferrals-Les-Montagnes au Plateau de Limouzy</name>
    <desc><![CDATA[J'aime les arbres... Photos copiez collez le lien :
http://vttolonzac.blogspot.fr/2015/06/de-ferrals-les-montagnes-au-plateau-de.html]]></desc>
  </metadata>
  <trk>
    <name><![CDATA[29-JUIN-15 11:41:34]]></name>
    <trkseg>
      <trkpt lat="43.40473" lon="2.63259">
        <ele>447.63</ele>
        <time>2015-06-29T06:33:16Z</time>
      </trkpt>
      <trkpt lat="43.40473" lon="2.63259">
        <ele>448.59</ele>
        <time>2015-06-29T06:33:19Z</time>
      </trkpt>
      <trkpt lat="43.40472" lon="2.6326">
        <ele>448.59</ele>
        <time>2015-06-29T06:33:20Z</time>
      </trkpt>
      <trkpt lat="43.40472" lon="2.63257">
        <ele>447.15</ele>
        <time>2015-06-29T06:33:36Z</time>
      </trkpt>
      <trkpt lat="43.40471" lon="2.63246">
        <ele>444.27</ele>
        <time>2015-06-29T06:33:49Z</time>
      </trkpt>
      <trkpt lat="43.4047" lon="2.63245">
        <ele>451.96</ele>
        <time>2015-06-29T06:33:50Z</time>
      </trkpt>
      <trkpt lat="43.4047" lon="2.63244">
        <ele>448.11</ele>
        <time>2015-06-29T06:33:51Z</time>
      </trkpt>
      <trkpt lat="43.40468" lon="2.63232">
        <ele>447.15</ele>
        <time>2015-06-29T06:34:10Z</time>
      </trkpt>
      <trkpt lat="43.40461" lon="2.63217">
        <ele>447.15</ele>
        <time>2015-06-29T06:34:26Z</time>
      </trkpt>
      <trkpt lat="43.40446" lon="2.63205">
        <ele>447.15</ele>
        <time>2015-06-29T06:34:44Z</time>
      </trkpt>
      <trkpt lat="43.40443" lon="2.63206">
        <ele>447.63</ele>
        <time>2015-06-29T06:34:50Z</time>
      </trkpt>
      <trkpt lat="43.4044" lon="2.63198">
        <ele>447.63</ele>
        <time>2015-06-29T06:35:03Z</time>
      </trkpt>
      <trkpt lat="43.40437" lon="2.63198">
        <ele>448.11</ele>
        <time>2015-06-29T06:35:06Z</time>
      </trkpt>
      <trkpt lat="43.40435" lon="2.63196">
        <ele>448.11</ele>
        <time>2015-06-29T06:35:18Z</time>
      </trkpt>
      <trkpt lat="43.40435" lon="2.63194">
        <ele>448.11</ele>
        <time>2015-06-29T06:35:19Z</time>
      </trkpt>
      <trkpt lat="43.40437" lon="2.6319">
        <ele>448.11</ele>
        <time>2015-06-29T06:35:22Z</time>
      </trkpt>
      <trkpt lat="43.40447" lon="2.63194">
        <ele>450.52</ele>
        <time>2015-06-29T06:35:36Z</time>
      </trkpt>
      <trkpt lat="43.40455" lon="2.63197">
        <ele>451.48</ele>
        <time>2015-06-29T06:35:50Z</time>
      </trkpt>
      <trkpt lat="43.40462" lon="2.63206">
        <ele>453.88</ele>
        <time>2015-06-29T06:36:12Z</time>
      </trkpt>
      <trkpt lat="43.40482" lon="2.63223">
        <ele>456.76</ele>
        <time>2015-06-29T06:36:31Z</time>
      </trkpt>
      <trkpt lat="43.40498" lon="2.6324">
        <ele>460.13</ele>
        <time>2015-06-29T06:36:51Z</time>
      </trkpt>
      <trkpt lat="43.40517" lon="2.63257">
        <ele>462.05</ele>
        <time>2015-06-29T06:37:11Z</time>
      </trkpt>
      <trkpt lat="43.40523" lon="2.63273">
        <ele>463.97</ele>
        <time>2015-06-29T06:37:32Z</time>
      </trkpt>
      <trkpt lat="43.40541" lon="2.6329">
        <ele>465.9</ele>
        <time>2015-06-29T06:37:53Z</time>
      </trkpt>
      <trkpt lat="43.40567" lon="2.63315">
        <ele>469.26</ele>
        <time>2015-06-29T06:38:14Z</time>
      </trkpt>
      <trkpt lat="43.40583" lon="2.63322">
        <ele>469.74</ele>
        <time>2015-06-29T06:38:29Z</time>
      </trkpt>
      <trkpt lat="43.40602" lon="2.63334">
        <ele>472.14</ele>
        <time>2015-06-29T06:38:50Z</time>
      </trkpt>
      <trkpt lat="43.40623" lon="2.6335">
        <ele>474.07</ele>
        <time>2015-06-29T06:39:11Z</time>
      </trkpt>
      <trkpt lat="43.40641" lon="2.6336">
        <ele>475.51</ele>
        <time>2015-06-29T06:39:33Z</time>
      </trkpt>
      <trkpt lat="43.40659" lon="2.63369">
        <ele>475.51</ele>
        <time>2015-06-29T06:39:51Z</time>
      </trkpt>
      <trkpt lat="43.40683" lon="2.63374">
        <ele>476.95</ele>
        <time>2015-06-29T06:40:11Z</time>
      </trkpt>
      <trkpt lat="43.40704" lon="2.63378">
        <ele>477.43</ele>
        <time>2015-06-29T06:40:32Z</time>
      </trkpt>
      <trkpt lat="43.40719" lon="2.63387">
        <ele>478.39</ele>
        <time>2015-06-29T06:40:43Z</time>
      </trkpt>
      <trkpt lat="43.40726" lon="2.63392">
        <ele>478.87</ele>
        <time>2015-06-29T06:40:56Z</time>
      </trkpt>
      <trkpt lat="43.4073" lon="2.63394">
        <ele>478.39</ele>
        <time>2015-06-29T06:40:59Z</time>
      </trkpt>
      <trkpt lat="43.4075" lon="2.63398">
        <ele>481.28</ele>
        <time>2015-06-29T06:41:17Z</time>
      </trkpt>
      <trkpt lat="43.40764" lon="2.63406">
        <ele>482.72</ele>
        <time>2015-06-29T06:41:36Z</time>
      </trkpt>
      <trkpt lat="43.40771" lon="2.63406">
        <ele>482.72</ele>
        <time>2015-06-29T06:41:56Z</time>
      </trkpt>
      <trkpt lat="43.40777" lon="2.63405">
        <ele>484.16</ele>
        <time>2015-06-29T06:42:17Z</time>
      </trkpt>
      <trkpt lat="43.40805" lon="2.63402">
        <ele>485.6</ele>
        <time>2015-06-29T06:42:35Z</time>
      </trkpt>
      <trkpt lat="43.4081" lon="2.63402">
        <ele>486.08</ele>
        <time>2015-06-29T06:42:39Z</time>
      </trkpt>
      <trkpt lat="43.40826" lon="2.63416">
        <ele>488.01</ele>
        <time>2015-06-29T06:42:54Z</time>
      </trkpt>
      <trkpt lat="43.4084" lon="2.6342">
        <ele>489.45</ele>
        <time>2015-06-29T06:43:08Z</time>
      </trkpt>
      <trkpt lat="43.40851" lon="2.63426">
        <ele>491.37</ele>
        <time>2015-06-29T06:43:26Z</time>
      </trkpt>
      <trkpt lat="43.40864" lon="2.63422">
        <ele>494.26</ele>
        <time>2015-06-29T06:43:44Z</time>
      </trkpt>
      <trkpt lat="43.40871" lon="2.63418">
        <ele>495.7</ele>
        <time>2015-06-29T06:44:01Z</time>
      </trkpt>
      <trkpt lat="43.40887" lon="2.63411">
        <ele>496.66</ele>
        <time>2015-06-29T06:44:17Z</time>
      </trkpt>
      <trkpt lat="43.40891" lon="2.63413">
        <ele>496.18</ele>
        <time>2015-06-29T06:44:32Z</time>
      </trkpt>
      <trkpt lat="43.40908" lon="2.63419">
        <ele>497.62</ele>
        <time>2015-06-29T06:44:43Z</time>
      </trkpt>
      <trkpt lat="43.40917" lon="2.63434">
        <ele>500.5</ele>
        <time>2015-06-29T06:44:56Z</time>
      </trkpt>
      <trkpt lat="43.40927" lon="2.63448">
        <ele>503.87</ele>
        <time>2015-06-29T06:45:11Z</time>
      </trkpt>
      <trkpt lat="43.40939" lon="2.63461">
        <ele>505.31</ele>
        <time>2015-06-29T06:45:28Z</time>
      </trkpt>
      <trkpt lat="43.40955" lon="2.6347">
        <ele>506.75</ele>
        <time>2015-06-29T06:45:48Z</time>
      </trkpt>
      <trkpt lat="43.40969" lon="2.63475">
        <ele>508.19</ele>
        <time>2015-06-29T06:46:05Z</time>
      </trkpt>
      <trkpt lat="43.40982" lon="2.63476">
        <ele>510.12</ele>
        <time>2015-06-29T06:46:19Z</time>
      </trkpt>
      <trkpt lat="43.40992" lon="2.63489">
        <ele>510.12</ele>
        <time>2015-06-29T06:46:37Z</time>
      </trkpt>
      <trkpt lat="43.40999" lon="2.635">
        <ele>511.56</ele>
        <time>2015-06-29T06:46:54Z</time>
      </trkpt>
      <trkpt lat="43.41028" lon="2.63502">
        <ele>512.52</ele>
        <time>2015-06-29T06:47:07Z</time>
      </trkpt>
      <trkpt lat="43.41046" lon="2.63508">
        <ele>513.96</ele>
        <time>2015-06-29T06:47:24Z</time>
      </trkpt>
      <trkpt lat="43.41055" lon="2.63512">
        <ele>514.92</ele>
        <time>2015-06-29T06:47:39Z</time>
      </trkpt>
      <trkpt lat="43.41061" lon="2.63518">
        <ele>515.88</ele>
        <time>2015-06-29T06:47:53Z</time>
      </trkpt>
      <trkpt lat="43.41062" lon="2.63518">
        <ele>515.88</ele>
        <time>2015-06-29T06:47:54Z</time>
      </trkpt>
      <trkpt lat="43.41084" lon="2.63526">
        <ele>517.33</ele>
        <time>2015-06-29T06:48:09Z</time>
      </trkpt>
      <trkpt lat="43.41097" lon="2.63534">
        <ele>518.29</ele>
        <time>2015-06-29T06:48:26Z</time>
      </trkpt>
      <trkpt lat="43.4111" lon="2.63537">
        <ele>519.25</ele>
        <time>2015-06-29T06:48:44Z</time>
      </trkpt>
      <trkpt lat="43.4113" lon="2.63544">
        <ele>520.21</ele>
        <time>2015-06-29T06:49:02Z</time>
      </trkpt>
      <trkpt lat="43.41134" lon="2.63546">
        <ele>521.17</ele>
        <time>2015-06-29T06:49:16Z</time>
      </trkpt>
      <trkpt lat="43.41135" lon="2.63546">
        <ele>521.17</ele>
        <time>2015-06-29T06:49:17Z</time>
      </trkpt>
      <trkpt lat="43.41161" lon="2.63549">
        <ele>522.13</ele>
        <time>2015-06-29T06:49:35Z</time>
      </trkpt>
      <trkpt lat="43.41177" lon="2.63546">
        <ele>523.09</ele>
        <time>2015-06-29T06:49:49Z</time>
      </trkpt>
      <trkpt lat="43.41191" lon="2.63547">
        <ele>524.54</ele>
        <time>2015-06-29T06:50:05Z</time>
      </trkpt>
      <trkpt lat="43.41206" lon="2.63546">
        <ele>525.98</ele>
        <time>2015-06-29T06:50:19Z</time>
      </trkpt>
      <trkpt lat="43.41219" lon="2.63549">
        <ele>526.46</ele>
        <time>2015-06-29T06:50:34Z</time>
      </trkpt>
      <trkpt lat="43.41237" lon="2.63552">
        <ele>528.38</ele>
        <time>2015-06-29T06:50:51Z</time>
      </trkpt>
      <trkpt lat="43.41248" lon="2.63554">
        <ele>529.82</ele>
        <time>2015-06-29T06:51:07Z</time>
      </trkpt>
      <trkpt lat="43.41263" lon="2.63558">
        <ele>531.75</ele>
        <time>2015-06-29T06:51:24Z</time>
      </trkpt>
      <trkpt lat="43.41276" lon="2.63562">
        <ele>532.71</ele>
        <time>2015-06-29T06:51:37Z</time>
      </trkpt>
      <trkpt lat="43.4128" lon="2.63561">
        <ele>533.19</ele>
        <time>2015-06-29T06:51:41Z</time>
      </trkpt>
      <trkpt lat="43.41292" lon="2.63562">
        <ele>534.15</ele>
        <time>2015-06-29T06:51:55Z</time>
      </trkpt>
      <trkpt lat="43.41302" lon="2.63564">
        <ele>536.07</ele>
        <time>2015-06-29T06:52:08Z</time>
      </trkpt>
      <trkpt lat="43.41318" lon="2.63569">
        <ele>538.96</ele>
        <time>2015-06-29T06:52:24Z</time>
      </trkpt>
      <trkpt lat="43.41331" lon="2.63569">
        <ele>540.88</ele>
        <time>2015-06-29T06:52:40Z</time>
      </trkpt>
      <trkpt lat="43.41342" lon="2.63566">
        <ele>542.8</ele>
        <time>2015-06-29T06:52:55Z</time>
      </trkpt>
      <trkpt lat="43.41352" lon="2.63561">
        <ele>545.2</ele>
        <time>2015-06-29T06:53:11Z</time>
      </trkpt>
      <trkpt lat="43.41365" lon="2.63555">
        <ele>547.13</ele>
        <time>2015-06-29T06:53:25Z</time>
      </trkpt>
      <trkpt lat="43.4138" lon="2.63546">
        <ele>550.01</ele>
        <time>2015-06-29T06:53:42Z</time>
      </trkpt>
      <trkpt lat="43.41387" lon="2.63529">
        <ele>551.93</ele>
        <time>2015-06-29T06:53:58Z</time>
      </trkpt>
      <trkpt lat="43.41396" lon="2.63516">
        <ele>554.34</ele>
        <time>2015-06-29T06:54:17Z</time>
      </trkpt>
      <trkpt lat="43.41404" lon="2.63513">
        <ele>556.74</ele>
        <time>2015-06-29T06:54:32Z</time>
      </trkpt>
      <trkpt lat="43.41418" lon="2.63513">
        <ele>559.14</ele>
        <time>2015-06-29T06:54:48Z</time>
      </trkpt>
      <trkpt lat="43.41437" lon="2.63507">
        <ele>561.55</ele>
        <time>2015-06-29T06:55:05Z</time>
      </trkpt>
      <trkpt lat="43.41448" lon="2.63501">
        <ele>562.99</ele>
        <time>2015-06-29T06:55:20Z</time>
      </trkpt>
      <trkpt lat="43.41453" lon="2.63497">
        <ele>563.95</ele>
        <time>2015-06-29T06:55:37Z</time>
      </trkpt>
      <trkpt lat="43.41456" lon="2.63491">
        <ele>565.39</ele>
        <time>2015-06-29T06:56:01Z</time>
      </trkpt>
      <trkpt lat="43.4146" lon="2.63484">
        <ele>565.87</ele>
        <time>2015-06-29T06:56:07Z</time>
      </trkpt>
      <trkpt lat="43.41478" lon="2.63461">
        <ele>569.72</ele>
        <time>2015-06-29T06:56:23Z</time>
      </trkpt>
      <trkpt lat="43.41484" lon="2.63452">
        <ele>572.12</ele>
        <time>2015-06-29T06:56:38Z</time>
      </trkpt>
      <trkpt lat="43.4149" lon="2.63436">
        <ele>574.04</ele>
        <time>2015-06-29T06:56:52Z</time>
      </trkpt>
      <trkpt lat="43.41492" lon="2.63412">
        <ele>575.49</ele>
        <time>2015-06-29T06:57:04Z</time>
      </trkpt>
      <trkpt lat="43.41492" lon="2.63401">
        <ele>576.93</ele>
        <time>2015-06-29T06:57:17Z</time>
      </trkpt>
      <trkpt lat="43.41487" lon="2.63402">
        <ele>578.37</ele>
        <time>2015-06-29T06:57:34Z</time>
      </trkpt>
      <trkpt lat="43.41488" lon="2.63402">
        <ele>578.37</ele>
        <time>2015-06-29T06:57:50Z</time>
      </trkpt>
      <trkpt lat="43.41486" lon="2.63401">
        <ele>579.81</ele>
        <time>2015-06-29T06:58:10Z</time>
      </trkpt>
      <trkpt lat="43.41483" lon="2.63399">
        <ele>581.73</ele>
        <time>2015-06-29T06:58:24Z</time>
      </trkpt>
      <trkpt lat="43.41479" lon="2.63387">
        <ele>582.7</ele>
        <time>2015-06-29T06:58:41Z</time>
      </trkpt>
      <trkpt lat="43.41486" lon="2.63384">
        <ele>582.22</ele>
        <time>2015-06-29T06:59:03Z</time>
      </trkpt>
      <trkpt lat="43.41487" lon="2.63391">
        <ele>580.29</ele>
        <time>2015-06-29T06:59:15Z</time>
      </trkpt>
      <trkpt lat="43.41487" lon="2.63393">
        <ele>580.29</ele>
        <time>2015-06-29T06:59:34Z</time>
      </trkpt>
      <trkpt lat="43.41484" lon="2.63386">
        <ele>583.18</ele>
        <time>2015-06-29T06:59:52Z</time>
      </trkpt>
      <trkpt lat="43.41486" lon="2.63376">
        <ele>583.66</ele>
        <time>2015-06-29T07:00:06Z</time>
      </trkpt>
      <trkpt lat="43.41485" lon="2.63375">
        <ele>583.18</ele>
        <time>2015-06-29T07:00:25Z</time>
      </trkpt>
      <trkpt lat="43.41485" lon="2.63387">
        <ele>579.81</ele>
        <time>2015-06-29T07:00:39Z</time>
      </trkpt>
      <trkpt lat="43.41492" lon="2.6338">
        <ele>578.85</ele>
        <time>2015-06-29T07:00:54Z</time>
      </trkpt>
      <trkpt lat="43.41503" lon="2.63371">
        <ele>578.37</ele>
        <time>2015-06-29T07:01:08Z</time>
      </trkpt>
      <trkpt lat="43.415" lon="2.63373">
        <ele>580.29</ele>
        <time>2015-06-29T07:01:27Z</time>
      </trkpt>
      <trkpt lat="43.41497" lon="2.63355">
        <ele>582.22</ele>
        <time>2015-06-29T07:01:40Z</time>
      </trkpt>
      <trkpt lat="43.41497" lon="2.63334">
        <ele>584.62</ele>
        <time>2015-06-29T07:01:56Z</time>
      </trkpt>
      <trkpt lat="43.41499" lon="2.6332">
        <ele>586.06</ele>
        <time>2015-06-29T07:02:08Z</time>
      </trkpt>
      <trkpt lat="43.41503" lon="2.63294">
        <ele>587.98</ele>
        <time>2015-06-29T07:02:25Z</time>
      </trkpt>
      <trkpt lat="43.41501" lon="2.63277">
        <ele>590.39</ele>
        <time>2015-06-29T07:02:43Z</time>
      </trkpt>
      <trkpt lat="43.41507" lon="2.63255">
        <ele>592.79</ele>
        <time>2015-06-29T07:03:01Z</time>
      </trkpt>
      <trkpt lat="43.41515" lon="2.63231">
        <ele>595.19</ele>
        <time>2015-06-29T07:03:19Z</time>
      </trkpt>
      <trkpt lat="43.41524" lon="2.63212">
        <ele>598.56</ele>
        <time>2015-06-29T07:03:35Z</time>
      </trkpt>
      <trkpt lat="43.41527" lon="2.63204">
        <ele>599.04</ele>
        <time>2015-06-29T07:03:55Z</time>
      </trkpt>
      <trkpt lat="43.41533" lon="2.63194">
        <ele>600</ele>
        <time>2015-06-29T07:04:10Z</time>
      </trkpt>
      <trkpt lat="43.41543" lon="2.6318">
        <ele>599.52</ele>
        <time>2015-06-29T07:04:30Z</time>
      </trkpt>
      <trkpt lat="43.41546" lon="2.6318">
        <ele>599.52</ele>
        <time>2015-06-29T07:04:49Z</time>
      </trkpt>
      <trkpt lat="43.41543" lon="2.63173">
        <ele>600</ele>
        <time>2015-06-29T07:05:09Z</time>
      </trkpt>
      <trkpt lat="43.41539" lon="2.63166">
        <ele>600.96</ele>
        <time>2015-06-29T07:05:30Z</time>
      </trkpt>
      <trkpt lat="43.4154" lon="2.63162">
        <ele>602.4</ele>
        <time>2015-06-29T07:05:49Z</time>
      </trkpt>
      <trkpt lat="43.41544" lon="2.6314">
        <ele>604.81</ele>
        <time>2015-06-29T07:06:06Z</time>
      </trkpt>
      <trkpt lat="43.41547" lon="2.63123">
        <ele>608.17</ele>
        <time>2015-06-29T07:06:21Z</time>
      </trkpt>
      <trkpt lat="43.41543" lon="2.6311">
        <ele>611.06</ele>
        <time>2015-06-29T07:06:38Z</time>
      </trkpt>
      <trkpt lat="43.41538" lon="2.63098">
        <ele>613.46</ele>
        <time>2015-06-29T07:06:53Z</time>
      </trkpt>
      <trkpt lat="43.41527" lon="2.63068">
        <ele>615.38</ele>
        <time>2015-06-29T07:07:09Z</time>
      </trkpt>
      <trkpt lat="43.41515" lon="2.63055">
        <ele>617.3</ele>
        <time>2015-06-29T07:07:26Z</time>
      </trkpt>
      <trkpt lat="43.41507" lon="2.6304">
        <ele>618.75</ele>
        <time>2015-06-29T07:07:43Z</time>
      </trkpt>
      <trkpt lat="43.41503" lon="2.63028">
        <ele>620.19</ele>
        <time>2015-06-29T07:08:04Z</time>
      </trkpt>
      <trkpt lat="43.41504" lon="2.63007">
        <ele>621.15</ele>
        <time>2015-06-29T07:08:22Z</time>
      </trkpt>
      <trkpt lat="43.41508" lon="2.62987">
        <ele>622.59</ele>
        <time>2015-06-29T07:08:39Z</time>
      </trkpt>
      <trkpt lat="43.41516" lon="2.62965">
        <ele>623.07</ele>
        <time>2015-06-29T07:08:55Z</time>
      </trkpt>
      <trkpt lat="43.4152" lon="2.62956">
        <ele>623.55</ele>
        <time>2015-06-29T07:09:12Z</time>
      </trkpt>
      <trkpt lat="43.41532" lon="2.62937">
        <ele>624.51</ele>
        <time>2015-06-29T07:09:31Z</time>
      </trkpt>
      <trkpt lat="43.41541" lon="2.62918">
        <ele>625.47</ele>
        <time>2015-06-29T07:09:52Z</time>
      </trkpt>
      <trkpt lat="43.41546" lon="2.62909">
        <ele>625.96</ele>
        <time>2015-06-29T07:10:10Z</time>
      </trkpt>
      <trkpt lat="43.41556" lon="2.62895">
        <ele>626.92</ele>
        <time>2015-06-29T07:10:25Z</time>
      </trkpt>
      <trkpt lat="43.41562" lon="2.62884">
        <ele>628.36</ele>
        <time>2015-06-29T07:10:39Z</time>
      </trkpt>
      <trkpt lat="43.41571" lon="2.62872">
        <ele>629.8</ele>
        <time>2015-06-29T07:10:53Z</time>
      </trkpt>
      <trkpt lat="43.41577" lon="2.62866">
        <ele>631.24</ele>
        <time>2015-06-29T07:11:04Z</time>
      </trkpt>
      <trkpt lat="43.41587" lon="2.62856">
        <ele>632.68</ele>
        <time>2015-06-29T07:11:17Z</time>
      </trkpt>
      <trkpt lat="43.41594" lon="2.62852">
        <ele>633.17</ele>
        <time>2015-06-29T07:11:25Z</time>
      </trkpt>
      <trkpt lat="43.41597" lon="2.62851">
        <ele>634.13</ele>
        <time>2015-06-29T07:11:27Z</time>
      </trkpt>
      <trkpt lat="43.41601" lon="2.6285">
        <ele>634.61</ele>
        <time>2015-06-29T07:11:35Z</time>
      </trkpt>
      <trkpt lat="43.41616" lon="2.62851">
        <ele>636.53</ele>
        <time>2015-06-29T07:11:52Z</time>
      </trkpt>
      <trkpt lat="43.41619" lon="2.62851">
        <ele>636.53</ele>
        <time>2015-06-29T07:11:57Z</time>
      </trkpt>
      <trkpt lat="43.4163" lon="2.62854">
        <ele>638.93</ele>
        <time>2015-06-29T07:12:10Z</time>
      </trkpt>
      <trkpt lat="43.41636" lon="2.62857">
        <ele>640.38</ele>
        <time>2015-06-29T07:12:23Z</time>
      </trkpt>
      <trkpt lat="43.41647" lon="2.6286">
        <ele>642.3</ele>
        <time>2015-06-29T07:12:36Z</time>
      </trkpt>
      <trkpt lat="43.41648" lon="2.6286">
        <ele>642.78</ele>
        <time>2015-06-29T07:12:37Z</time>
      </trkpt>
      <trkpt lat="43.4166" lon="2.62869">
        <ele>643.26</ele>
        <time>2015-06-29T07:12:51Z</time>
      </trkpt>
      <trkpt lat="43.41671" lon="2.62879">
        <ele>645.18</ele>
        <time>2015-06-29T07:13:04Z</time>
      </trkpt>
      <trkpt lat="43.41684" lon="2.62887">
        <ele>646.62</ele>
        <time>2015-06-29T07:13:18Z</time>
      </trkpt>
      <trkpt lat="43.4169" lon="2.62889">
        <ele>647.59</ele>
        <time>2015-06-29T07:13:26Z</time>
      </trkpt>
      <trkpt lat="43.41692" lon="2.62889">
        <ele>648.07</ele>
        <time>2015-06-29T07:13:28Z</time>
      </trkpt>
      <trkpt lat="43.417" lon="2.62892">
        <ele>649.03</ele>
        <time>2015-06-29T07:13:37Z</time>
      </trkpt>
      <trkpt lat="43.4171" lon="2.62898">
        <ele>650.47</ele>
        <time>2015-06-29T07:13:50Z</time>
      </trkpt>
      <trkpt lat="43.41713" lon="2.629">
        <ele>651.91</ele>
        <time>2015-06-29T07:14:01Z</time>
      </trkpt>
      <trkpt lat="43.41717" lon="2.62901">
        <ele>652.87</ele>
        <time>2015-06-29T07:14:13Z</time>
      </trkpt>
      <trkpt lat="43.41721" lon="2.62897">
        <ele>653.83</ele>
        <time>2015-06-29T07:14:20Z</time>
      </trkpt>
      <trkpt lat="43.41722" lon="2.62893">
        <ele>653.83</ele>
        <time>2015-06-29T07:14:23Z</time>
      </trkpt>
      <trkpt lat="43.41721" lon="2.62881">
        <ele>655.28</ele>
        <time>2015-06-29T07:14:31Z</time>
      </trkpt>
      <trkpt lat="43.4172" lon="2.62877">
        <ele>655.76</ele>
        <time>2015-06-29T07:14:34Z</time>
      </trkpt>
      <trkpt lat="43.41719" lon="2.62859">
        <ele>658.16</ele>
        <time>2015-06-29T07:14:48Z</time>
      </trkpt>
      <trkpt lat="43.4172" lon="2.62854">
        <ele>658.16</ele>
        <time>2015-06-29T07:14:52Z</time>
      </trkpt>
      <trkpt lat="43.4172" lon="2.62848">
        <ele>658.64</ele>
        <time>2015-06-29T07:14:57Z</time>
      </trkpt>
      <trkpt lat="43.41721" lon="2.62839">
        <ele>659.12</ele>
        <time>2015-06-29T07:15:03Z</time>
      </trkpt>
      <trkpt lat="43.41723" lon="2.62835">
        <ele>659.12</ele>
        <time>2015-06-29T07:15:06Z</time>
      </trkpt>
      <trkpt lat="43.41723" lon="2.62828">
        <ele>659.6</ele>
        <time>2015-06-29T07:15:11Z</time>
      </trkpt>
      <trkpt lat="43.4173" lon="2.62819">
        <ele>660.08</ele>
        <time>2015-06-29T07:15:24Z</time>
      </trkpt>
      <trkpt lat="43.41732" lon="2.62815">
        <ele>659.6</ele>
        <time>2015-06-29T07:15:35Z</time>
      </trkpt>
      <trkpt lat="43.41734" lon="2.62807">
        <ele>659.6</ele>
        <time>2015-06-29T07:15:47Z</time>
      </trkpt>
      <trkpt lat="43.41738" lon="2.62807">
        <ele>659.6</ele>
        <time>2015-06-29T07:16:07Z</time>
      </trkpt>
      <trkpt lat="43.41742" lon="2.62806">
        <ele>659.12</ele>
        <time>2015-06-29T07:16:22Z</time>
      </trkpt>
      <trkpt lat="43.41746" lon="2.62804">
        <ele>659.12</ele>
        <time>2015-06-29T07:16:36Z</time>
      </trkpt>
      <trkpt lat="43.41749" lon="2.62805">
        <ele>659.12</ele>
        <time>2015-06-29T07:16:39Z</time>
      </trkpt>
      <trkpt lat="43.41767" lon="2.62813">
        <ele>658.64</ele>
        <time>2015-06-29T07:16:56Z</time>
      </trkpt>
      <trkpt lat="43.41773" lon="2.62817">
        <ele>659.12</ele>
        <time>2015-06-29T07:17:02Z</time>
      </trkpt>
      <trkpt lat="43.41781" lon="2.62823">
        <ele>658.64</ele>
        <time>2015-06-29T07:17:14Z</time>
      </trkpt>
      <trkpt lat="43.41794" lon="2.62831">
        <ele>658.64</ele>
        <time>2015-06-29T07:17:30Z</time>
      </trkpt>
      <trkpt lat="43.41797" lon="2.62833">
        <ele>658.16</ele>
        <time>2015-06-29T07:17:35Z</time>
      </trkpt>
      <trkpt lat="43.41803" lon="2.62837">
        <ele>657.68</ele>
        <time>2015-06-29T07:17:42Z</time>
      </trkpt>
      <trkpt lat="43.41809" lon="2.6284">
        <ele>656.24</ele>
        <time>2015-06-29T07:17:49Z</time>
      </trkpt>
      <trkpt lat="43.4182" lon="2.62848">
        <ele>656.72</ele>
        <time>2015-06-29T07:18:00Z</time>
      </trkpt>
      <trkpt lat="43.41822" lon="2.62849">
        <ele>656.72</ele>
        <time>2015-06-29T07:18:01Z</time>
      </trkpt>
      <trkpt lat="43.41824" lon="2.62852">
        <ele>656.72</ele>
        <time>2015-06-29T07:18:04Z</time>
      </trkpt>
      <trkpt lat="43.4183" lon="2.62855">
        <ele>657.68</ele>
        <time>2015-06-29T07:18:09Z</time>
      </trkpt>
      <trkpt lat="43.41832" lon="2.62856">
        <ele>657.2</ele>
        <time>2015-06-29T07:18:13Z</time>
      </trkpt>
      <trkpt lat="43.41838" lon="2.62859">
        <ele>657.2</ele>
        <time>2015-06-29T07:18:21Z</time>
      </trkpt>
      <trkpt lat="43.41846" lon="2.62863">
        <ele>657.2</ele>
        <time>2015-06-29T07:18:31Z</time>
      </trkpt>
      <trkpt lat="43.41849" lon="2.62865">
        <ele>656.72</ele>
        <time>2015-06-29T07:18:34Z</time>
      </trkpt>
      <trkpt lat="43.41851" lon="2.62865">
        <ele>656.24</ele>
        <time>2015-06-29T07:18:36Z</time>
      </trkpt>
      <trkpt lat="43.41859" lon="2.62869">
        <ele>656.72</ele>
        <time>2015-06-29T07:18:44Z</time>
      </trkpt>
      <trkpt lat="43.4187" lon="2.62873">
        <ele>656.24</ele>
        <time>2015-06-29T07:18:54Z</time>
      </trkpt>
      <trkpt lat="43.41871" lon="2.62873">
        <ele>657.68</ele>
        <time>2015-06-29T07:18:56Z</time>
      </trkpt>
      <trkpt lat="43.41872" lon="2.62874">
        <ele>657.2</ele>
        <time>2015-06-29T07:18:57Z</time>
      </trkpt>
      <trkpt lat="43.41885" lon="2.62879">
        <ele>656.72</ele>
        <time>2015-06-29T07:19:12Z</time>
      </trkpt>
      <trkpt lat="43.419" lon="2.62885">
        <ele>656.72</ele>
        <time>2015-06-29T07:19:28Z</time>
      </trkpt>
      <trkpt lat="43.41901" lon="2.62886">
        <ele>656.72</ele>
        <time>2015-06-29T07:19:31Z</time>
      </trkpt>
      <trkpt lat="43.4192" lon="2.62893">
        <ele>656.72</ele>
        <time>2015-06-29T07:19:49Z</time>
      </trkpt>
      <trkpt lat="43.41936" lon="2.62901">
        <ele>657.2</ele>
        <time>2015-06-29T07:20:06Z</time>
      </trkpt>
      <trkpt lat="43.41951" lon="2.62906">
        <ele>655.76</ele>
        <time>2015-06-29T07:20:21Z</time>
      </trkpt>
      <trkpt lat="43.41966" lon="2.62912">
        <ele>656.24</ele>
        <time>2015-06-29T07:20:37Z</time>
      </trkpt>
      <trkpt lat="43.41985" lon="2.62921">
        <ele>655.76</ele>
        <time>2015-06-29T07:20:55Z</time>
      </trkpt>
      <trkpt lat="43.41995" lon="2.62926">
        <ele>654.8</ele>
        <time>2015-06-29T07:21:07Z</time>
      </trkpt>
      <trkpt lat="43.42005" lon="2.62931">
        <ele>654.31</ele>
        <time>2015-06-29T07:21:24Z</time>
      </trkpt>
      <trkpt lat="43.42017" lon="2.62935">
        <ele>655.28</ele>
        <time>2015-06-29T07:21:44Z</time>
      </trkpt>
      <trkpt lat="43.42036" lon="2.62929">
        <ele>654.8</ele>
        <time>2015-06-29T07:22:04Z</time>
      </trkpt>
      <trkpt lat="43.42049" lon="2.62919">
        <ele>654.8</ele>
        <time>2015-06-29T07:22:20Z</time>
      </trkpt>
      <trkpt lat="43.42067" lon="2.62905">
        <ele>655.28</ele>
        <time>2015-06-29T07:22:40Z</time>
      </trkpt>
      <trkpt lat="43.42082" lon="2.62893">
        <ele>655.76</ele>
        <time>2015-06-29T07:22:59Z</time>
      </trkpt>
      <trkpt lat="43.421" lon="2.62874">
        <ele>656.72</ele>
        <time>2015-06-29T07:23:17Z</time>
      </trkpt>
      <trkpt lat="43.42102" lon="2.62872">
        <ele>657.68</ele>
        <time>2015-06-29T07:23:25Z</time>
      </trkpt>
      <trkpt lat="43.42111" lon="2.6286">
        <ele>657.68</ele>
        <time>2015-06-29T07:23:40Z</time>
      </trkpt>
      <trkpt lat="43.42112" lon="2.62854">
        <ele>659.12</ele>
        <time>2015-06-29T07:23:57Z</time>
      </trkpt>
      <trkpt lat="43.4212" lon="2.62838">
        <ele>660.56</ele>
        <time>2015-06-29T07:24:17Z</time>
      </trkpt>
      <trkpt lat="43.42128" lon="2.62804">
        <ele>663.45</ele>
        <time>2015-06-29T07:24:36Z</time>
      </trkpt>
      <trkpt lat="43.42123" lon="2.62767">
        <ele>664.89</ele>
        <time>2015-06-29T07:24:56Z</time>
      </trkpt>
      <trkpt lat="43.42123" lon="2.62746">
        <ele>668.25</ele>
        <time>2015-06-29T07:25:11Z</time>
      </trkpt>
      <trkpt lat="43.42126" lon="2.62734">
        <ele>670.18</ele>
        <time>2015-06-29T07:25:28Z</time>
      </trkpt>
      <trkpt lat="43.42127" lon="2.62715">
        <ele>672.1</ele>
        <time>2015-06-29T07:25:41Z</time>
      </trkpt>
      <trkpt lat="43.42133" lon="2.62698">
        <ele>674.5</ele>
        <time>2015-06-29T07:25:57Z</time>
      </trkpt>
      <trkpt lat="43.42137" lon="2.62679">
        <ele>675.46</ele>
        <time>2015-06-29T07:26:12Z</time>
      </trkpt>
      <trkpt lat="43.4214" lon="2.62672">
        <ele>676.42</ele>
        <time>2015-06-29T07:26:25Z</time>
      </trkpt>
      <trkpt lat="43.42144" lon="2.62676">
        <ele>676.91</ele>
        <time>2015-06-29T07:26:36Z</time>
      </trkpt>
      <trkpt lat="43.42146" lon="2.62678">
        <ele>677.39</ele>
        <time>2015-06-29T07:26:51Z</time>
      </trkpt>
      <trkpt lat="43.42142" lon="2.62673">
        <ele>676.91</ele>
        <time>2015-06-29T07:27:03Z</time>
      </trkpt>
      <trkpt lat="43.4214" lon="2.62674">
        <ele>676.91</ele>
        <time>2015-06-29T07:27:20Z</time>
      </trkpt>
      <trkpt lat="43.4214" lon="2.62675">
        <ele>676.91</ele>
        <time>2015-06-29T07:27:42Z</time>
      </trkpt>
      <trkpt lat="43.42139" lon="2.62677">
        <ele>676.91</ele>
        <time>2015-06-29T07:28:03Z</time>
      </trkpt>
      <trkpt lat="43.42139" lon="2.62676">
        <ele>676.42</ele>
        <time>2015-06-29T07:28:23Z</time>
      </trkpt>
      <trkpt lat="43.42139" lon="2.62676">
        <ele>676.91</ele>
        <time>2015-06-29T07:28:49Z</time>
      </trkpt>
      <trkpt lat="43.42139" lon="2.62676">
        <ele>676.91</ele>
        <time>2015-06-29T07:29:09Z</time>
      </trkpt>
      <trkpt lat="43.42139" lon="2.62676">
        <ele>674.5</ele>
        <time>2015-06-29T07:29:23Z</time>
      </trkpt>
      <trkpt lat="43.42139" lon="2.62676">
        <ele>677.87</ele>
        <time>2015-06-29T07:29:24Z</time>
      </trkpt>
      <trkpt lat="43.42139" lon="2.62676">
        <ele>677.39</ele>
        <time>2015-06-29T07:29:42Z</time>
      </trkpt>
      <trkpt lat="43.42139" lon="2.62676">
        <ele>677.39</ele>
        <time>2015-06-29T07:29:59Z</time>
      </trkpt>
      <trkpt lat="43.42137" lon="2.62678">
        <ele>677.39</ele>
        <time>2015-06-29T07:30:16Z</time>
      </trkpt>
      <trkpt lat="43.42137" lon="2.62679">
        <ele>677.39</ele>
        <time>2015-06-29T07:30:33Z</time>
      </trkpt>
      <trkpt lat="43.42137" lon="2.62678">
        <ele>676.91</ele>
        <time>2015-06-29T07:30:53Z</time>
      </trkpt>
      <trkpt lat="43.42137" lon="2.62678">
        <ele>676.91</ele>
        <time>2015-06-29T07:31:15Z</time>
      </trkpt>
      <trkpt lat="43.42138" lon="2.62677">
        <ele>676.91</ele>
        <time>2015-06-29T07:31:38Z</time>
      </trkpt>
      <trkpt lat="43.42147" lon="2.6268">
        <ele>678.83</ele>
        <time>2015-06-29T07:32:03Z</time>
      </trkpt>
      <trkpt lat="43.42149" lon="2.62686">
        <ele>679.79</ele>
        <time>2015-06-29T07:32:08Z</time>
      </trkpt>
      <trkpt lat="43.42149" lon="2.62706">
        <ele>682.19</ele>
        <time>2015-06-29T07:32:25Z</time>
      </trkpt>
      <trkpt lat="43.42156" lon="2.62717">
        <ele>684.12</ele>
        <time>2015-06-29T07:32:40Z</time>
      </trkpt>
      <trkpt lat="43.42155" lon="2.6271">
        <ele>684.12</ele>
        <time>2015-06-29T07:32:44Z</time>
      </trkpt>
      <trkpt lat="43.42165" lon="2.6269">
        <ele>685.08</ele>
        <time>2015-06-29T07:33:00Z</time>
      </trkpt>
      <trkpt lat="43.42171" lon="2.6271">
        <ele>686.52</ele>
        <time>2015-06-29T07:33:14Z</time>
      </trkpt>
      <trkpt lat="43.42172" lon="2.62727">
        <ele>687</ele>
        <time>2015-06-29T07:33:27Z</time>
      </trkpt>
      <trkpt lat="43.42177" lon="2.6274">
        <ele>687.48</ele>
        <time>2015-06-29T07:33:38Z</time>
      </trkpt>
      <trkpt lat="43.42186" lon="2.62755">
        <ele>689.4</ele>
        <time>2015-06-29T07:33:53Z</time>
      </trkpt>
      <trkpt lat="43.42187" lon="2.62754">
        <ele>689.4</ele>
        <time>2015-06-29T07:34:05Z</time>
      </trkpt>
      <trkpt lat="43.42191" lon="2.62766">
        <ele>690.36</ele>
        <time>2015-06-29T07:34:19Z</time>
      </trkpt>
      <trkpt lat="43.42201" lon="2.62777">
        <ele>691.81</ele>
        <time>2015-06-29T07:34:36Z</time>
      </trkpt>
      <trkpt lat="43.42218" lon="2.62783">
        <ele>693.73</ele>
        <time>2015-06-29T07:34:52Z</time>
      </trkpt>
      <trkpt lat="43.4223" lon="2.62789">
        <ele>693.73</ele>
        <time>2015-06-29T07:35:09Z</time>
      </trkpt>
      <trkpt lat="43.4225" lon="2.628">
        <ele>694.69</ele>
        <time>2015-06-29T07:35:25Z</time>
      </trkpt>
      <trkpt lat="43.42261" lon="2.62805">
        <ele>696.61</ele>
        <time>2015-06-29T07:35:36Z</time>
      </trkpt>
      <trkpt lat="43.42266" lon="2.62812">
        <ele>697.09</ele>
        <time>2015-06-29T07:35:44Z</time>
      </trkpt>
      <trkpt lat="43.42269" lon="2.62814">
        <ele>697.09</ele>
        <time>2015-06-29T07:35:47Z</time>
      </trkpt>
      <trkpt lat="43.42282" lon="2.6282">
        <ele>699.02</ele>
        <time>2015-06-29T07:36:03Z</time>
      </trkpt>
      <trkpt lat="43.42293" lon="2.62826">
        <ele>699.98</ele>
        <time>2015-06-29T07:36:17Z</time>
      </trkpt>
      <trkpt lat="43.42304" lon="2.62838">
        <ele>701.42</ele>
        <time>2015-06-29T07:36:31Z</time>
      </trkpt>
      <trkpt lat="43.42318" lon="2.6284">
        <ele>702.86</ele>
        <time>2015-06-29T07:36:47Z</time>
      </trkpt>
      <trkpt lat="43.42327" lon="2.62839">
        <ele>703.34</ele>
        <time>2015-06-29T07:37:03Z</time>
      </trkpt>
      <trkpt lat="43.42343" lon="2.62835">
        <ele>704.78</ele>
        <time>2015-06-29T07:37:22Z</time>
      </trkpt>
      <trkpt lat="43.42357" lon="2.6283">
        <ele>705.75</ele>
        <time>2015-06-29T07:37:40Z</time>
      </trkpt>
      <trkpt lat="43.42367" lon="2.62826">
        <ele>707.19</ele>
        <time>2015-06-29T07:38:00Z</time>
      </trkpt>
      <trkpt lat="43.42375" lon="2.62822">
        <ele>708.15</ele>
        <time>2015-06-29T07:38:14Z</time>
      </trkpt>
      <trkpt lat="43.42401" lon="2.62835">
        <ele>709.11</ele>
        <time>2015-06-29T07:38:32Z</time>
      </trkpt>
      <trkpt lat="43.42408" lon="2.62858">
        <ele>709.11</ele>
        <time>2015-06-29T07:38:45Z</time>
      </trkpt>
      <trkpt lat="43.42411" lon="2.62881">
        <ele>710.55</ele>
        <time>2015-06-29T07:39:00Z</time>
      </trkpt>
      <trkpt lat="43.42418" lon="2.62894">
        <ele>711.03</ele>
        <time>2015-06-29T07:39:16Z</time>
      </trkpt>
      <trkpt lat="43.42429" lon="2.62907">
        <ele>712.47</ele>
        <time>2015-06-29T07:39:31Z</time>
      </trkpt>
      <trkpt lat="43.42439" lon="2.62921">
        <ele>713.44</ele>
        <time>2015-06-29T07:39:46Z</time>
      </trkpt>
      <trkpt lat="43.42452" lon="2.62939">
        <ele>714.88</ele>
        <time>2015-06-29T07:40:00Z</time>
      </trkpt>
      <trkpt lat="43.42461" lon="2.62952">
        <ele>715.36</ele>
        <time>2015-06-29T07:40:14Z</time>
      </trkpt>
      <trkpt lat="43.42468" lon="2.62969">
        <ele>716.8</ele>
        <time>2015-06-29T07:40:29Z</time>
      </trkpt>
      <trkpt lat="43.42473" lon="2.62978">
        <ele>718.24</ele>
        <time>2015-06-29T07:40:43Z</time>
      </trkpt>
      <trkpt lat="43.42483" lon="2.62995">
        <ele>719.2</ele>
        <time>2015-06-29T07:40:59Z</time>
      </trkpt>
      <trkpt lat="43.42491" lon="2.63013">
        <ele>720.16</ele>
        <time>2015-06-29T07:41:13Z</time>
      </trkpt>
      <trkpt lat="43.425" lon="2.63023">
        <ele>721.13</ele>
        <time>2015-06-29T07:41:26Z</time>
      </trkpt>
      <trkpt lat="43.42512" lon="2.63038">
        <ele>722.09</ele>
        <time>2015-06-29T07:41:40Z</time>
      </trkpt>
      <trkpt lat="43.42526" lon="2.63048">
        <ele>723.53</ele>
        <time>2015-06-29T07:41:58Z</time>
      </trkpt>
      <trkpt lat="43.42535" lon="2.63051">
        <ele>724.97</ele>
        <time>2015-06-29T07:42:12Z</time>
      </trkpt>
      <trkpt lat="43.42548" lon="2.63061">
        <ele>726.41</ele>
        <time>2015-06-29T07:42:27Z</time>
      </trkpt>
      <trkpt lat="43.42564" lon="2.63066">
        <ele>727.37</ele>
        <time>2015-06-29T07:42:43Z</time>
      </trkpt>
      <trkpt lat="43.42574" lon="2.63071">
        <ele>728.34</ele>
        <time>2015-06-29T07:42:58Z</time>
      </trkpt>
      <trkpt lat="43.42588" lon="2.63076">
        <ele>729.78</ele>
        <time>2015-06-29T07:43:13Z</time>
      </trkpt>
      <trkpt lat="43.42609" lon="2.63078">
        <ele>731.22</ele>
        <time>2015-06-29T07:43:30Z</time>
      </trkpt>
      <trkpt lat="43.42621" lon="2.63082">
        <ele>732.18</ele>
        <time>2015-06-29T07:43:48Z</time>
      </trkpt>
      <trkpt lat="43.42626" lon="2.63084">
        <ele>732.66</ele>
        <time>2015-06-29T07:43:53Z</time>
      </trkpt>
      <trkpt lat="43.42643" lon="2.63097">
        <ele>734.1</ele>
        <time>2015-06-29T07:44:11Z</time>
      </trkpt>
      <trkpt lat="43.42658" lon="2.63116">
        <ele>734.1</ele>
        <time>2015-06-29T07:44:28Z</time>
      </trkpt>
      <trkpt lat="43.42671" lon="2.63135">
        <ele>735.07</ele>
        <time>2015-06-29T07:44:46Z</time>
      </trkpt>
      <trkpt lat="43.42679" lon="2.6315">
        <ele>736.51</ele>
        <time>2015-06-29T07:45:03Z</time>
      </trkpt>
      <trkpt lat="43.42686" lon="2.63169">
        <ele>737.47</ele>
        <time>2015-06-29T07:45:21Z</time>
      </trkpt>
      <trkpt lat="43.42696" lon="2.6317">
        <ele>738.43</ele>
        <time>2015-06-29T07:45:34Z</time>
      </trkpt>
      <trkpt lat="43.42698" lon="2.63161">
        <ele>739.39</ele>
        <time>2015-06-29T07:45:49Z</time>
      </trkpt>
      <trkpt lat="43.42692" lon="2.63146">
        <ele>740.35</ele>
        <time>2015-06-29T07:46:01Z</time>
      </trkpt>
      <trkpt lat="43.42682" lon="2.63129">
        <ele>740.83</ele>
        <time>2015-06-29T07:46:16Z</time>
      </trkpt>
      <trkpt lat="43.42675" lon="2.63109">
        <ele>741.31</ele>
        <time>2015-06-29T07:46:33Z</time>
      </trkpt>
      <trkpt lat="43.42672" lon="2.63092">
        <ele>741.79</ele>
        <time>2015-06-29T07:46:50Z</time>
      </trkpt>
      <trkpt lat="43.42655" lon="2.63077">
        <ele>743.24</ele>
        <time>2015-06-29T07:47:05Z</time>
      </trkpt>
      <trkpt lat="43.42646" lon="2.63063">
        <ele>744.68</ele>
        <time>2015-06-29T07:47:22Z</time>
      </trkpt>
      <trkpt lat="43.42644" lon="2.6305">
        <ele>745.16</ele>
        <time>2015-06-29T07:47:35Z</time>
      </trkpt>
      <trkpt lat="43.42641" lon="2.63049">
        <ele>745.64</ele>
        <time>2015-06-29T07:47:36Z</time>
      </trkpt>
      <trkpt lat="43.42634" lon="2.63046">
        <ele>746.12</ele>
        <time>2015-06-29T07:47:41Z</time>
      </trkpt>
      <trkpt lat="43.42622" lon="2.63037">
        <ele>746.6</ele>
        <time>2015-06-29T07:47:57Z</time>
      </trkpt>
      <trkpt lat="43.4261" lon="2.63027">
        <ele>747.56</ele>
        <time>2015-06-29T07:48:13Z</time>
      </trkpt>
      <trkpt lat="43.42606" lon="2.63019">
        <ele>748.04</ele>
        <time>2015-06-29T07:48:27Z</time>
      </trkpt>
      <trkpt lat="43.42602" lon="2.63011">
        <ele>748.04</ele>
        <time>2015-06-29T07:48:39Z</time>
      </trkpt>
      <trkpt lat="43.4259" lon="2.62994">
        <ele>749.49</ele>
        <time>2015-06-29T07:48:55Z</time>
      </trkpt>
      <trkpt lat="43.42586" lon="2.62982">
        <ele>750.45</ele>
        <time>2015-06-29T07:49:08Z</time>
      </trkpt>
      <trkpt lat="43.4258" lon="2.62964">
        <ele>751.41</ele>
        <time>2015-06-29T07:49:24Z</time>
      </trkpt>
      <trkpt lat="43.42574" lon="2.62945">
        <ele>752.37</ele>
        <time>2015-06-29T07:49:40Z</time>
      </trkpt>
      <trkpt lat="43.4257" lon="2.62938">
        <ele>751.89</ele>
        <time>2015-06-29T07:49:46Z</time>
      </trkpt>
      <trkpt lat="43.42574" lon="2.62914">
        <ele>752.85</ele>
        <time>2015-06-29T07:50:01Z</time>
      </trkpt>
      <trkpt lat="43.42577" lon="2.62895">
        <ele>753.33</ele>
        <time>2015-06-29T07:50:16Z</time>
      </trkpt>
      <trkpt lat="43.42577" lon="2.62882">
        <ele>754.77</ele>
        <time>2015-06-29T07:50:31Z</time>
      </trkpt>
      <trkpt lat="43.42582" lon="2.62853">
        <ele>755.25</ele>
        <time>2015-06-29T07:50:50Z</time>
      </trkpt>
      <trkpt lat="43.42579" lon="2.62842">
        <ele>755.73</ele>
        <time>2015-06-29T07:51:10Z</time>
      </trkpt>
      <trkpt lat="43.42579" lon="2.62842">
        <ele>755.73</ele>
        <time>2015-06-29T07:51:28Z</time>
      </trkpt>
      <trkpt lat="43.42578" lon="2.62847">
        <ele>755.25</ele>
        <time>2015-06-29T07:51:43Z</time>
      </trkpt>
      <trkpt lat="43.4258" lon="2.62825">
        <ele>756.69</ele>
        <time>2015-06-29T07:51:57Z</time>
      </trkpt>
      <trkpt lat="43.42584" lon="2.62805">
        <ele>758.14</ele>
        <time>2015-06-29T07:52:13Z</time>
      </trkpt>
      <trkpt lat="43.42587" lon="2.62775">
        <ele>758.62</ele>
        <time>2015-06-29T07:52:27Z</time>
      </trkpt>
      <trkpt lat="43.42589" lon="2.62755">
        <ele>761.02</ele>
        <time>2015-06-29T07:52:45Z</time>
      </trkpt>
      <trkpt lat="43.42581" lon="2.6274">
        <ele>761.5</ele>
        <time>2015-06-29T07:53:00Z</time>
      </trkpt>
      <trkpt lat="43.42575" lon="2.62732">
        <ele>762.94</ele>
        <time>2015-06-29T07:53:11Z</time>
      </trkpt>
      <trkpt lat="43.42565" lon="2.6271">
        <ele>763.42</ele>
        <time>2015-06-29T07:53:23Z</time>
      </trkpt>
      <trkpt lat="43.42562" lon="2.62705">
        <ele>763.9</ele>
        <time>2015-06-29T07:53:27Z</time>
      </trkpt>
      <trkpt lat="43.42559" lon="2.62691">
        <ele>763.9</ele>
        <time>2015-06-29T07:53:35Z</time>
      </trkpt>
      <trkpt lat="43.42565" lon="2.62677">
        <ele>765.35</ele>
        <time>2015-06-29T07:53:48Z</time>
      </trkpt>
      <trkpt lat="43.4257" lon="2.62663">
        <ele>766.79</ele>
        <time>2015-06-29T07:54:03Z</time>
      </trkpt>
      <trkpt lat="43.42584" lon="2.62633">
        <ele>768.23</ele>
        <time>2015-06-29T07:54:19Z</time>
      </trkpt>
      <trkpt lat="43.42596" lon="2.6261">
        <ele>769.19</ele>
        <time>2015-06-29T07:54:35Z</time>
      </trkpt>
      <trkpt lat="43.42601" lon="2.62599">
        <ele>770.63</ele>
        <time>2015-06-29T07:54:49Z</time>
      </trkpt>
      <trkpt lat="43.42598" lon="2.62578">
        <ele>771.11</ele>
        <time>2015-06-29T07:55:06Z</time>
      </trkpt>
      <trkpt lat="43.42586" lon="2.62577">
        <ele>772.56</ele>
        <time>2015-06-29T07:55:18Z</time>
      </trkpt>
      <trkpt lat="43.4258" lon="2.62574">
        <ele>771.6</ele>
        <time>2015-06-29T07:55:21Z</time>
      </trkpt>
      <trkpt lat="43.4257" lon="2.62574">
        <ele>772.56</ele>
        <time>2015-06-29T07:55:27Z</time>
      </trkpt>
      <trkpt lat="43.42565" lon="2.62571">
        <ele>773.04</ele>
        <time>2015-06-29T07:55:32Z</time>
      </trkpt>
      <trkpt lat="43.42556" lon="2.62559">
        <ele>774</ele>
        <time>2015-06-29T07:55:44Z</time>
      </trkpt>
      <trkpt lat="43.42555" lon="2.62531">
        <ele>774.96</ele>
        <time>2015-06-29T07:55:59Z</time>
      </trkpt>
      <trkpt lat="43.42556" lon="2.62513">
        <ele>775.44</ele>
        <time>2015-06-29T07:56:14Z</time>
      </trkpt>
      <trkpt lat="43.42558" lon="2.62496">
        <ele>775.92</ele>
        <time>2015-06-29T07:56:28Z</time>
      </trkpt>
      <trkpt lat="43.4256" lon="2.62475">
        <ele>777.36</ele>
        <time>2015-06-29T07:56:44Z</time>
      </trkpt>
      <trkpt lat="43.42562" lon="2.62451">
        <ele>778.32</ele>
        <time>2015-06-29T07:57:01Z</time>
      </trkpt>
      <trkpt lat="43.42567" lon="2.6243">
        <ele>778.81</ele>
        <time>2015-06-29T07:57:16Z</time>
      </trkpt>
      <trkpt lat="43.42571" lon="2.62413">
        <ele>780.25</ele>
        <time>2015-06-29T07:57:29Z</time>
      </trkpt>
      <trkpt lat="43.42578" lon="2.62396">
        <ele>780.25</ele>
        <time>2015-06-29T07:57:44Z</time>
      </trkpt>
      <trkpt lat="43.42581" lon="2.62391">
        <ele>782.17</ele>
        <time>2015-06-29T07:57:51Z</time>
      </trkpt>
      <trkpt lat="43.42589" lon="2.62374">
        <ele>783.13</ele>
        <time>2015-06-29T07:58:06Z</time>
      </trkpt>
      <trkpt lat="43.42591" lon="2.6237">
        <ele>783.13</ele>
        <time>2015-06-29T07:58:10Z</time>
      </trkpt>
      <trkpt lat="43.42598" lon="2.62351">
        <ele>784.57</ele>
        <time>2015-06-29T07:58:24Z</time>
      </trkpt>
      <trkpt lat="43.42607" lon="2.62338">
        <ele>785.05</ele>
        <time>2015-06-29T07:58:38Z</time>
      </trkpt>
      <trkpt lat="43.42614" lon="2.62327">
        <ele>786.02</ele>
        <time>2015-06-29T07:58:51Z</time>
      </trkpt>
      <trkpt lat="43.42624" lon="2.62315">
        <ele>786.5</ele>
        <time>2015-06-29T07:59:06Z</time>
      </trkpt>
      <trkpt lat="43.42634" lon="2.62303">
        <ele>786.98</ele>
        <time>2015-06-29T07:59:19Z</time>
      </trkpt>
      <trkpt lat="43.42642" lon="2.62289">
        <ele>787.46</ele>
        <time>2015-06-29T07:59:32Z</time>
      </trkpt>
      <trkpt lat="43.42651" lon="2.62278">
        <ele>787.94</ele>
        <time>2015-06-29T07:59:45Z</time>
      </trkpt>
      <trkpt lat="43.42658" lon="2.62265">
        <ele>788.9</ele>
        <time>2015-06-29T07:59:58Z</time>
      </trkpt>
      <trkpt lat="43.42666" lon="2.62257">
        <ele>789.86</ele>
        <time>2015-06-29T08:00:09Z</time>
      </trkpt>
      <trkpt lat="43.42669" lon="2.62254">
        <ele>790.82</ele>
        <time>2015-06-29T08:00:15Z</time>
      </trkpt>
      <trkpt lat="43.42672" lon="2.62249">
        <ele>791.3</ele>
        <time>2015-06-29T08:00:29Z</time>
      </trkpt>
      <trkpt lat="43.4268" lon="2.62242">
        <ele>792.74</ele>
        <time>2015-06-29T08:00:43Z</time>
      </trkpt>
      <trkpt lat="43.42688" lon="2.62228">
        <ele>794.67</ele>
        <time>2015-06-29T08:01:00Z</time>
      </trkpt>
      <trkpt lat="43.42696" lon="2.62218">
        <ele>797.07</ele>
        <time>2015-06-29T08:01:15Z</time>
      </trkpt>
      <trkpt lat="43.42708" lon="2.62209">
        <ele>798.99</ele>
        <time>2015-06-29T08:01:31Z</time>
      </trkpt>
      <trkpt lat="43.42716" lon="2.62201">
        <ele>801.4</ele>
        <time>2015-06-29T08:01:49Z</time>
      </trkpt>
      <trkpt lat="43.42725" lon="2.62197">
        <ele>803.32</ele>
        <time>2015-06-29T08:02:04Z</time>
      </trkpt>
      <trkpt lat="43.42732" lon="2.62187">
        <ele>806.2</ele>
        <time>2015-06-29T08:02:22Z</time>
      </trkpt>
      <trkpt lat="43.42746" lon="2.62176">
        <ele>807.64</ele>
        <time>2015-06-29T08:02:38Z</time>
      </trkpt>
      <trkpt lat="43.42749" lon="2.62144">
        <ele>810.53</ele>
        <time>2015-06-29T08:02:55Z</time>
      </trkpt>
      <trkpt lat="43.42752" lon="2.62122">
        <ele>812.93</ele>
        <time>2015-06-29T08:03:10Z</time>
      </trkpt>
      <trkpt lat="43.42753" lon="2.62115">
        <ele>813.41</ele>
        <time>2015-06-29T08:03:16Z</time>
      </trkpt>
      <trkpt lat="43.42753" lon="2.62092">
        <ele>814.85</ele>
        <time>2015-06-29T08:03:30Z</time>
      </trkpt>
      <trkpt lat="43.42756" lon="2.62075">
        <ele>816.3</ele>
        <time>2015-06-29T08:03:45Z</time>
      </trkpt>
      <trkpt lat="43.42761" lon="2.62063">
        <ele>818.22</ele>
        <time>2015-06-29T08:03:59Z</time>
      </trkpt>
      <trkpt lat="43.42762" lon="2.62064">
        <ele>817.74</ele>
        <time>2015-06-29T08:04:10Z</time>
      </trkpt>
      <trkpt lat="43.42764" lon="2.62062">
        <ele>818.22</ele>
        <time>2015-06-29T08:04:13Z</time>
      </trkpt>
      <trkpt lat="43.42776" lon="2.62041">
        <ele>820.14</ele>
        <time>2015-06-29T08:04:32Z</time>
      </trkpt>
      <trkpt lat="43.4278" lon="2.62041">
        <ele>820.62</ele>
        <time>2015-06-29T08:04:44Z</time>
      </trkpt>
      <trkpt lat="43.42781" lon="2.62041">
        <ele>821.1</ele>
        <time>2015-06-29T08:05:00Z</time>
      </trkpt>
      <trkpt lat="43.42782" lon="2.62041">
        <ele>821.1</ele>
        <time>2015-06-29T08:05:18Z</time>
      </trkpt>
      <trkpt lat="43.42781" lon="2.62039">
        <ele>821.1</ele>
        <time>2015-06-29T08:05:35Z</time>
      </trkpt>
      <trkpt lat="43.42783" lon="2.62036">
        <ele>825.43</ele>
        <time>2015-06-29T08:05:48Z</time>
      </trkpt>
      <trkpt lat="43.42783" lon="2.62036">
        <ele>821.58</ele>
        <time>2015-06-29T08:05:49Z</time>
      </trkpt>
      <trkpt lat="43.42784" lon="2.62033">
        <ele>821.1</ele>
        <time>2015-06-29T08:06:03Z</time>
      </trkpt>
      <trkpt lat="43.42782" lon="2.62035">
        <ele>821.58</ele>
        <time>2015-06-29T08:06:21Z</time>
      </trkpt>
      <trkpt lat="43.42773" lon="2.62043">
        <ele>821.58</ele>
        <time>2015-06-29T08:06:36Z</time>
      </trkpt>
      <trkpt lat="43.42773" lon="2.62043">
        <ele>821.1</ele>
        <time>2015-06-29T08:06:59Z</time>
      </trkpt>
      <trkpt lat="43.42773" lon="2.62044">
        <ele>821.1</ele>
        <time>2015-06-29T08:07:24Z</time>
      </trkpt>
      <trkpt lat="43.42773" lon="2.62043">
        <ele>821.1</ele>
        <time>2015-06-29T08:07:46Z</time>
      </trkpt>
      <trkpt lat="43.42773" lon="2.62043">
        <ele>821.58</ele>
        <time>2015-06-29T08:08:11Z</time>
      </trkpt>
      <trkpt lat="43.42773" lon="2.62043">
        <ele>821.58</ele>
        <time>2015-06-29T08:08:38Z</time>
      </trkpt>
      <trkpt lat="43.42774" lon="2.62044">
        <ele>822.06</ele>
        <time>2015-06-29T08:09:02Z</time>
      </trkpt>
      <trkpt lat="43.42774" lon="2.62044">
        <ele>820.62</ele>
        <time>2015-06-29T08:09:26Z</time>
      </trkpt>
      <trkpt lat="43.42774" lon="2.62044">
        <ele>822.06</ele>
        <time>2015-06-29T08:09:28Z</time>
      </trkpt>
      <trkpt lat="43.42774" lon="2.62044">
        <ele>822.55</ele>
        <time>2015-06-29T08:09:53Z</time>
      </trkpt>
      <trkpt lat="43.42775" lon="2.62043">
        <ele>821.1</ele>
        <time>2015-06-29T08:10:16Z</time>
      </trkpt>
      <trkpt lat="43.42774" lon="2.62043">
        <ele>822.06</ele>
        <time>2015-06-29T08:10:41Z</time>
      </trkpt>
      <trkpt lat="43.42775" lon="2.62042">
        <ele>825.91</ele>
        <time>2015-06-29T08:11:00Z</time>
      </trkpt>
      <trkpt lat="43.42775" lon="2.62042">
        <ele>822.06</ele>
        <time>2015-06-29T08:11:01Z</time>
      </trkpt>
      <trkpt lat="43.42775" lon="2.62042">
        <ele>825.43</ele>
        <time>2015-06-29T08:11:18Z</time>
      </trkpt>
      <trkpt lat="43.42776" lon="2.62042">
        <ele>822.06</ele>
        <time>2015-06-29T08:11:22Z</time>
      </trkpt>
      <trkpt lat="43.42777" lon="2.62042">
        <ele>822.06</ele>
        <time>2015-06-29T08:11:45Z</time>
      </trkpt>
      <trkpt lat="43.42772" lon="2.62038">
        <ele>822.55</ele>
        <time>2015-06-29T08:12:05Z</time>
      </trkpt>
      <trkpt lat="43.42762" lon="2.62031">
        <ele>822.55</ele>
        <time>2015-06-29T08:12:19Z</time>
      </trkpt>
      <trkpt lat="43.42753" lon="2.6202">
        <ele>822.06</ele>
        <time>2015-06-29T08:12:33Z</time>
      </trkpt>
      <trkpt lat="43.42743" lon="2.62008">
        <ele>822.06</ele>
        <time>2015-06-29T08:12:49Z</time>
      </trkpt>
      <trkpt lat="43.42738" lon="2.62001">
        <ele>822.06</ele>
        <time>2015-06-29T08:12:56Z</time>
      </trkpt>
      <trkpt lat="43.4273" lon="2.61982">
        <ele>822.06</ele>
        <time>2015-06-29T08:13:12Z</time>
      </trkpt>
      <trkpt lat="43.42728" lon="2.61967">
        <ele>821.58</ele>
        <time>2015-06-29T08:13:23Z</time>
      </trkpt>
      <trkpt lat="43.42728" lon="2.61947">
        <ele>821.58</ele>
        <time>2015-06-29T08:13:38Z</time>
      </trkpt>
      <trkpt lat="43.42728" lon="2.61928">
        <ele>822.06</ele>
        <time>2015-06-29T08:13:53Z</time>
      </trkpt>
      <trkpt lat="43.42726" lon="2.61922">
        <ele>822.06</ele>
        <time>2015-06-29T08:14:07Z</time>
      </trkpt>
      <trkpt lat="43.42726" lon="2.61921">
        <ele>822.06</ele>
        <time>2015-06-29T08:14:08Z</time>
      </trkpt>
      <trkpt lat="43.42728" lon="2.61904">
        <ele>822.06</ele>
        <time>2015-06-29T08:14:21Z</time>
      </trkpt>
      <trkpt lat="43.42727" lon="2.61895">
        <ele>822.55</ele>
        <time>2015-06-29T08:14:27Z</time>
      </trkpt>
      <trkpt lat="43.42727" lon="2.61879">
        <ele>822.55</ele>
        <time>2015-06-29T08:14:38Z</time>
      </trkpt>
      <trkpt lat="43.42725" lon="2.61866">
        <ele>821.1</ele>
        <time>2015-06-29T08:14:56Z</time>
      </trkpt>
      <trkpt lat="43.42726" lon="2.61859">
        <ele>821.1</ele>
        <time>2015-06-29T08:15:07Z</time>
      </trkpt>
      <trkpt lat="43.42726" lon="2.61854">
        <ele>821.1</ele>
        <time>2015-06-29T08:15:10Z</time>
      </trkpt>
      <trkpt lat="43.42725" lon="2.61829">
        <ele>820.14</ele>
        <time>2015-06-29T08:15:26Z</time>
      </trkpt>
      <trkpt lat="43.42724" lon="2.61801">
        <ele>820.14</ele>
        <time>2015-06-29T08:15:43Z</time>
      </trkpt>
      <trkpt lat="43.42723" lon="2.61794">
        <ele>820.14</ele>
        <time>2015-06-29T08:15:47Z</time>
      </trkpt>
      <trkpt lat="43.42722" lon="2.61764">
        <ele>819.18</ele>
        <time>2015-06-29T08:16:05Z</time>
      </trkpt>
      <trkpt lat="43.42722" lon="2.6174">
        <ele>818.22</ele>
        <time>2015-06-29T08:16:20Z</time>
      </trkpt>
      <trkpt lat="43.42722" lon="2.61732">
        <ele>818.22</ele>
        <time>2015-06-29T08:16:36Z</time>
      </trkpt>
      <trkpt lat="43.42721" lon="2.61708">
        <ele>817.74</ele>
        <time>2015-06-29T08:16:53Z</time>
      </trkpt>
      <trkpt lat="43.42721" lon="2.61679">
        <ele>816.78</ele>
        <time>2015-06-29T08:17:12Z</time>
      </trkpt>
      <trkpt lat="43.42721" lon="2.61655">
        <ele>816.3</ele>
        <time>2015-06-29T08:17:27Z</time>
      </trkpt>
      <trkpt lat="43.42721" lon="2.61649">
        <ele>816.3</ele>
        <time>2015-06-29T08:17:31Z</time>
      </trkpt>
      <trkpt lat="43.42722" lon="2.61621">
        <ele>816.78</ele>
        <time>2015-06-29T08:17:47Z</time>
      </trkpt>
      <trkpt lat="43.42724" lon="2.61604">
        <ele>815.82</ele>
        <time>2015-06-29T08:17:57Z</time>
      </trkpt>
      <trkpt lat="43.42732" lon="2.61578">
        <ele>814.85</ele>
        <time>2015-06-29T08:18:14Z</time>
      </trkpt>
      <trkpt lat="43.42739" lon="2.61556">
        <ele>814.37</ele>
        <time>2015-06-29T08:18:30Z</time>
      </trkpt>
      <trkpt lat="43.42739" lon="2.61535">
        <ele>813.41</ele>
        <time>2015-06-29T08:18:43Z</time>
      </trkpt>
      <trkpt lat="43.42735" lon="2.61526">
        <ele>812.45</ele>
        <time>2015-06-29T08:18:49Z</time>
      </trkpt>
      <trkpt lat="43.4272" lon="2.61512">
        <ele>811.01</ele>
        <time>2015-06-29T08:19:05Z</time>
      </trkpt>
      <trkpt lat="43.42709" lon="2.61512">
        <ele>810.53</ele>
        <time>2015-06-29T08:19:16Z</time>
      </trkpt>
      <trkpt lat="43.4269" lon="2.61518">
        <ele>810.05</ele>
        <time>2015-06-29T08:19:31Z</time>
      </trkpt>
      <trkpt lat="43.42671" lon="2.61528">
        <ele>809.09</ele>
        <time>2015-06-29T08:19:48Z</time>
      </trkpt>
      <trkpt lat="43.42664" lon="2.6153">
        <ele>808.61</ele>
        <time>2015-06-29T08:19:54Z</time>
      </trkpt>
      <trkpt lat="43.42649" lon="2.61539">
        <ele>807.64</ele>
        <time>2015-06-29T08:20:13Z</time>
      </trkpt>
      <trkpt lat="43.42647" lon="2.61541">
        <ele>807.64</ele>
        <time>2015-06-29T08:20:18Z</time>
      </trkpt>
      <trkpt lat="43.42639" lon="2.61557">
        <ele>806.68</ele>
        <time>2015-06-29T08:20:29Z</time>
      </trkpt>
      <trkpt lat="43.42648" lon="2.61583">
        <ele>806.68</ele>
        <time>2015-06-29T08:20:46Z</time>
      </trkpt>
      <trkpt lat="43.42657" lon="2.61598">
        <ele>806.68</ele>
        <time>2015-06-29T08:20:58Z</time>
      </trkpt>
      <trkpt lat="43.42666" lon="2.61623">
        <ele>806.2</ele>
        <time>2015-06-29T08:21:14Z</time>
      </trkpt>
      <trkpt lat="43.42679" lon="2.61646">
        <ele>805.72</ele>
        <time>2015-06-29T08:21:33Z</time>
      </trkpt>
      <trkpt lat="43.42685" lon="2.61667">
        <ele>805.24</ele>
        <time>2015-06-29T08:21:48Z</time>
      </trkpt>
      <trkpt lat="43.42688" lon="2.61695">
        <ele>804.28</ele>
        <time>2015-06-29T08:22:06Z</time>
      </trkpt>
      <trkpt lat="43.42687" lon="2.61699">
        <ele>804.76</ele>
        <time>2015-06-29T08:22:08Z</time>
      </trkpt>
      <trkpt lat="43.42683" lon="2.6172">
        <ele>803.8</ele>
        <time>2015-06-29T08:22:24Z</time>
      </trkpt>
      <trkpt lat="43.4268" lon="2.61731">
        <ele>803.32</ele>
        <time>2015-06-29T08:22:32Z</time>
      </trkpt>
      <trkpt lat="43.42675" lon="2.61754">
        <ele>802.36</ele>
        <time>2015-06-29T08:22:49Z</time>
      </trkpt>
      <trkpt lat="43.42679" lon="2.61782">
        <ele>801.88</ele>
        <time>2015-06-29T08:23:06Z</time>
      </trkpt>
      <trkpt lat="43.42682" lon="2.61807">
        <ele>800.44</ele>
        <time>2015-06-29T08:23:24Z</time>
      </trkpt>
      <trkpt lat="43.42684" lon="2.61805">
        <ele>800.44</ele>
        <time>2015-06-29T08:23:47Z</time>
      </trkpt>
      <trkpt lat="43.42684" lon="2.61828">
        <ele>799.47</ele>
        <time>2015-06-29T08:24:06Z</time>
      </trkpt>
      <trkpt lat="43.42669" lon="2.61865">
        <ele>798.51</ele>
        <time>2015-06-29T08:24:27Z</time>
      </trkpt>
      <trkpt lat="43.42664" lon="2.61875">
        <ele>798.03</ele>
        <time>2015-06-29T08:24:44Z</time>
      </trkpt>
      <trkpt lat="43.42647" lon="2.61896">
        <ele>797.55</ele>
        <time>2015-06-29T08:25:03Z</time>
      </trkpt>
      <trkpt lat="43.42633" lon="2.61909">
        <ele>797.55</ele>
        <time>2015-06-29T08:25:17Z</time>
      </trkpt>
      <trkpt lat="43.42619" lon="2.61923">
        <ele>796.59</ele>
        <time>2015-06-29T08:25:33Z</time>
      </trkpt>
      <trkpt lat="43.42601" lon="2.61938">
        <ele>795.15</ele>
        <time>2015-06-29T08:25:52Z</time>
      </trkpt>
      <trkpt lat="43.42575" lon="2.61946">
        <ele>794.67</ele>
        <time>2015-06-29T08:26:14Z</time>
      </trkpt>
      <trkpt lat="43.42579" lon="2.61944">
        <ele>795.15</ele>
        <time>2015-06-29T08:26:37Z</time>
      </trkpt>
      <trkpt lat="43.42586" lon="2.61947">
        <ele>795.15</ele>
        <time>2015-06-29T08:27:04Z</time>
      </trkpt>
      <trkpt lat="43.4258" lon="2.61951">
        <ele>794.67</ele>
        <time>2015-06-29T08:27:23Z</time>
      </trkpt>
      <trkpt lat="43.42577" lon="2.61956">
        <ele>793.71</ele>
        <time>2015-06-29T08:27:29Z</time>
      </trkpt>
      <trkpt lat="43.42565" lon="2.61963">
        <ele>793.71</ele>
        <time>2015-06-29T08:27:36Z</time>
      </trkpt>
      <trkpt lat="43.42528" lon="2.61974">
        <ele>792.74</ele>
        <time>2015-06-29T08:27:55Z</time>
      </trkpt>
      <trkpt lat="43.42509" lon="2.61981">
        <ele>791.3</ele>
        <time>2015-06-29T08:28:11Z</time>
      </trkpt>
      <trkpt lat="43.4249" lon="2.6199">
        <ele>791.3</ele>
        <time>2015-06-29T08:28:27Z</time>
      </trkpt>
      <trkpt lat="43.42476" lon="2.61998">
        <ele>791.3</ele>
        <time>2015-06-29T08:28:41Z</time>
      </trkpt>
      <trkpt lat="43.42459" lon="2.62009">
        <ele>790.34</ele>
        <time>2015-06-29T08:28:53Z</time>
      </trkpt>
      <trkpt lat="43.42444" lon="2.62027">
        <ele>789.86</ele>
        <time>2015-06-29T08:29:10Z</time>
      </trkpt>
      <trkpt lat="43.42435" lon="2.6204">
        <ele>789.86</ele>
        <time>2015-06-29T08:29:19Z</time>
      </trkpt>
      <trkpt lat="43.42421" lon="2.62061">
        <ele>788.9</ele>
        <time>2015-06-29T08:29:36Z</time>
      </trkpt>
      <trkpt lat="43.42409" lon="2.62077">
        <ele>788.9</ele>
        <time>2015-06-29T08:29:50Z</time>
      </trkpt>
      <trkpt lat="43.42389" lon="2.62092">
        <ele>788.42</ele>
        <time>2015-06-29T08:30:05Z</time>
      </trkpt>
      <trkpt lat="43.42378" lon="2.62104">
        <ele>788.42</ele>
        <time>2015-06-29T08:30:19Z</time>
      </trkpt>
      <trkpt lat="43.42371" lon="2.62113">
        <ele>788.42</ele>
        <time>2015-06-29T08:30:28Z</time>
      </trkpt>
      <trkpt lat="43.42352" lon="2.62133">
        <ele>787.46</ele>
        <time>2015-06-29T08:30:46Z</time>
      </trkpt>
      <trkpt lat="43.42337" lon="2.62152">
        <ele>786.98</ele>
        <time>2015-06-29T08:31:02Z</time>
      </trkpt>
      <trkpt lat="43.42337" lon="2.62152">
        <ele>786.98</ele>
        <time>2015-06-29T08:31:04Z</time>
      </trkpt>
      <trkpt lat="43.42329" lon="2.62162">
        <ele>786.02</ele>
        <time>2015-06-29T08:31:14Z</time>
      </trkpt>
      <trkpt lat="43.42313" lon="2.62187">
        <ele>785.05</ele>
        <time>2015-06-29T08:31:33Z</time>
      </trkpt>
      <trkpt lat="43.42304" lon="2.62198">
        <ele>784.57</ele>
        <time>2015-06-29T08:31:44Z</time>
      </trkpt>
      <trkpt lat="43.42301" lon="2.62204">
        <ele>784.09</ele>
        <time>2015-06-29T08:31:56Z</time>
      </trkpt>
      <trkpt lat="43.42294" lon="2.62206">
        <ele>784.09</ele>
        <time>2015-06-29T08:32:12Z</time>
      </trkpt>
      <trkpt lat="43.42293" lon="2.62206">
        <ele>784.09</ele>
        <time>2015-06-29T08:32:38Z</time>
      </trkpt>
      <trkpt lat="43.423" lon="2.62206">
        <ele>785.05</ele>
        <time>2015-06-29T08:32:53Z</time>
      </trkpt>
      <trkpt lat="43.42309" lon="2.62205">
        <ele>784.57</ele>
        <time>2015-06-29T08:33:09Z</time>
      </trkpt>
      <trkpt lat="43.42309" lon="2.62209">
        <ele>784.57</ele>
        <time>2015-06-29T08:33:25Z</time>
      </trkpt>
      <trkpt lat="43.42311" lon="2.62211">
        <ele>784.09</ele>
        <time>2015-06-29T08:33:43Z</time>
      </trkpt>
      <trkpt lat="43.42325" lon="2.62212">
        <ele>784.09</ele>
        <time>2015-06-29T08:33:59Z</time>
      </trkpt>
      <trkpt lat="43.42352" lon="2.62213">
        <ele>783.61</ele>
        <time>2015-06-29T08:34:21Z</time>
      </trkpt>
      <trkpt lat="43.42369" lon="2.62214">
        <ele>783.13</ele>
        <time>2015-06-29T08:34:38Z</time>
      </trkpt>
      <trkpt lat="43.42388" lon="2.62213">
        <ele>783.13</ele>
        <time>2015-06-29T08:34:55Z</time>
      </trkpt>
      <trkpt lat="43.42403" lon="2.62208">
        <ele>783.13</ele>
        <time>2015-06-29T08:35:11Z</time>
      </trkpt>
      <trkpt lat="43.42417" lon="2.62197">
        <ele>782.65</ele>
        <time>2015-06-29T08:35:29Z</time>
      </trkpt>
      <trkpt lat="43.42421" lon="2.62194">
        <ele>783.61</ele>
        <time>2015-06-29T08:35:33Z</time>
      </trkpt>
      <trkpt lat="43.42424" lon="2.62192">
        <ele>783.61</ele>
        <time>2015-06-29T08:35:36Z</time>
      </trkpt>
      <trkpt lat="43.42441" lon="2.62184">
        <ele>783.61</ele>
        <time>2015-06-29T08:35:53Z</time>
      </trkpt>
      <trkpt lat="43.42454" lon="2.62177">
        <ele>784.57</ele>
        <time>2015-06-29T08:36:11Z</time>
      </trkpt>
      <trkpt lat="43.42466" lon="2.6217">
        <ele>784.09</ele>
        <time>2015-06-29T08:36:27Z</time>
      </trkpt>
      <trkpt lat="43.42482" lon="2.62159">
        <ele>784.57</ele>
        <time>2015-06-29T08:36:47Z</time>
      </trkpt>
      <trkpt lat="43.42501" lon="2.62154">
        <ele>784.57</ele>
        <time>2015-06-29T08:37:08Z</time>
      </trkpt>
      <trkpt lat="43.42519" lon="2.62143">
        <ele>784.57</ele>
        <time>2015-06-29T08:37:25Z</time>
      </trkpt>
      <trkpt lat="43.42535" lon="2.62144">
        <ele>785.05</ele>
        <time>2015-06-29T08:37:43Z</time>
      </trkpt>
      <trkpt lat="43.4256" lon="2.62136">
        <ele>786.02</ele>
        <time>2015-06-29T08:38:01Z</time>
      </trkpt>
      <trkpt lat="43.42578" lon="2.62128">
        <ele>786.02</ele>
        <time>2015-06-29T08:38:17Z</time>
      </trkpt>
      <trkpt lat="43.42612" lon="2.62123">
        <ele>786.5</ele>
        <time>2015-06-29T08:38:36Z</time>
      </trkpt>
      <trkpt lat="43.4262" lon="2.62115">
        <ele>786.5</ele>
        <time>2015-06-29T08:38:51Z</time>
      </trkpt>
      <trkpt lat="43.42637" lon="2.62109">
        <ele>786.5</ele>
        <time>2015-06-29T08:39:10Z</time>
      </trkpt>
      <trkpt lat="43.42661" lon="2.62113">
        <ele>786.98</ele>
        <time>2015-06-29T08:39:28Z</time>
      </trkpt>
      <trkpt lat="43.42679" lon="2.62111">
        <ele>787.94</ele>
        <time>2015-06-29T08:39:45Z</time>
      </trkpt>
      <trkpt lat="43.42694" lon="2.62111">
        <ele>788.9</ele>
        <time>2015-06-29T08:39:59Z</time>
      </trkpt>
      <trkpt lat="43.42707" lon="2.62125">
        <ele>790.82</ele>
        <time>2015-06-29T08:40:14Z</time>
      </trkpt>
      <trkpt lat="43.42705" lon="2.62138">
        <ele>790.34</ele>
        <time>2015-06-29T08:40:22Z</time>
      </trkpt>
      <trkpt lat="43.42698" lon="2.62163">
        <ele>790.82</ele>
        <time>2015-06-29T08:40:37Z</time>
      </trkpt>
      <trkpt lat="43.42687" lon="2.62181">
        <ele>791.3</ele>
        <time>2015-06-29T08:40:52Z</time>
      </trkpt>
      <trkpt lat="43.42672" lon="2.62204">
        <ele>792.26</ele>
        <time>2015-06-29T08:41:08Z</time>
      </trkpt>
      <trkpt lat="43.42665" lon="2.62227">
        <ele>792.74</ele>
        <time>2015-06-29T08:41:25Z</time>
      </trkpt>
      <trkpt lat="43.42659" lon="2.6225">
        <ele>794.19</ele>
        <time>2015-06-29T08:41:41Z</time>
      </trkpt>
      <trkpt lat="43.42655" lon="2.62256">
        <ele>794.19</ele>
        <time>2015-06-29T08:41:47Z</time>
      </trkpt>
      <trkpt lat="43.42652" lon="2.62268">
        <ele>793.71</ele>
        <time>2015-06-29T08:41:57Z</time>
      </trkpt>
      <trkpt lat="43.4264" lon="2.62277">
        <ele>793.71</ele>
        <time>2015-06-29T08:42:14Z</time>
      </trkpt>
      <trkpt lat="43.42639" lon="2.62277">
        <ele>793.71</ele>
        <time>2015-06-29T08:42:34Z</time>
      </trkpt>
      <trkpt lat="43.42635" lon="2.62282">
        <ele>792.74</ele>
        <time>2015-06-29T08:42:50Z</time>
      </trkpt>
      <trkpt lat="43.42626" lon="2.62296">
        <ele>789.86</ele>
        <time>2015-06-29T08:43:08Z</time>
      </trkpt>
      <trkpt lat="43.42608" lon="2.62302">
        <ele>786.98</ele>
        <time>2015-06-29T08:43:25Z</time>
      </trkpt>
      <trkpt lat="43.42602" lon="2.62309">
        <ele>786.02</ele>
        <time>2015-06-29T08:43:37Z</time>
      </trkpt>
      <trkpt lat="43.42601" lon="2.62311">
        <ele>786.02</ele>
        <time>2015-06-29T08:43:39Z</time>
      </trkpt>
      <trkpt lat="43.4259" lon="2.62326">
        <ele>782.65</ele>
        <time>2015-06-29T08:43:55Z</time>
      </trkpt>
      <trkpt lat="43.42586" lon="2.62332">
        <ele>781.69</ele>
        <time>2015-06-29T08:43:59Z</time>
      </trkpt>
      <trkpt lat="43.42577" lon="2.62343">
        <ele>779.29</ele>
        <time>2015-06-29T08:44:09Z</time>
      </trkpt>
      <trkpt lat="43.42565" lon="2.62362">
        <ele>776.4</ele>
        <time>2015-06-29T08:44:26Z</time>
      </trkpt>
      <trkpt lat="43.42558" lon="2.62376">
        <ele>774</ele>
        <time>2015-06-29T08:44:41Z</time>
      </trkpt>
      <trkpt lat="43.42547" lon="2.62386">
        <ele>771.11</ele>
        <time>2015-06-29T08:44:56Z</time>
      </trkpt>
      <trkpt lat="43.4254" lon="2.62394">
        <ele>768.71</ele>
        <time>2015-06-29T08:45:12Z</time>
      </trkpt>
      <trkpt lat="43.42544" lon="2.62397">
        <ele>769.19</ele>
        <time>2015-06-29T08:45:39Z</time>
      </trkpt>
      <trkpt lat="43.42541" lon="2.62402">
        <ele>767.27</ele>
        <time>2015-06-29T08:45:58Z</time>
      </trkpt>
      <trkpt lat="43.42532" lon="2.6241">
        <ele>765.35</ele>
        <time>2015-06-29T08:46:15Z</time>
      </trkpt>
      <trkpt lat="43.42517" lon="2.62418">
        <ele>762.46</ele>
        <time>2015-06-29T08:46:32Z</time>
      </trkpt>
      <trkpt lat="43.42509" lon="2.62431">
        <ele>761.02</ele>
        <time>2015-06-29T08:46:46Z</time>
      </trkpt>
      <trkpt lat="43.42496" lon="2.62448">
        <ele>758.14</ele>
        <time>2015-06-29T08:47:04Z</time>
      </trkpt>
      <trkpt lat="43.42488" lon="2.62477">
        <ele>755.73</ele>
        <time>2015-06-29T08:47:26Z</time>
      </trkpt>
      <trkpt lat="43.42475" lon="2.62504">
        <ele>753.81</ele>
        <time>2015-06-29T08:47:46Z</time>
      </trkpt>
      <trkpt lat="43.42464" lon="2.62522">
        <ele>752.85</ele>
        <time>2015-06-29T08:48:06Z</time>
      </trkpt>
      <trkpt lat="43.42454" lon="2.62525">
        <ele>750.93</ele>
        <time>2015-06-29T08:48:26Z</time>
      </trkpt>
      <trkpt lat="43.42453" lon="2.62525">
        <ele>751.41</ele>
        <time>2015-06-29T08:48:50Z</time>
      </trkpt>
      <trkpt lat="43.42451" lon="2.62527">
        <ele>751.41</ele>
        <time>2015-06-29T08:49:13Z</time>
      </trkpt>
      <trkpt lat="43.42442" lon="2.62537">
        <ele>749.49</ele>
        <time>2015-06-29T08:49:28Z</time>
      </trkpt>
      <trkpt lat="43.42434" lon="2.62543">
        <ele>748.04</ele>
        <time>2015-06-29T08:49:37Z</time>
      </trkpt>
      <trkpt lat="43.42421" lon="2.6256">
        <ele>745.64</ele>
        <time>2015-06-29T08:49:53Z</time>
      </trkpt>
      <trkpt lat="43.4242" lon="2.62561">
        <ele>745.64</ele>
        <time>2015-06-29T08:49:54Z</time>
      </trkpt>
      <trkpt lat="43.42411" lon="2.62581">
        <ele>743.72</ele>
        <time>2015-06-29T08:50:08Z</time>
      </trkpt>
      <trkpt lat="43.424" lon="2.62589">
        <ele>740.83</ele>
        <time>2015-06-29T08:50:23Z</time>
      </trkpt>
      <trkpt lat="43.42394" lon="2.62602">
        <ele>737.47</ele>
        <time>2015-06-29T08:50:38Z</time>
      </trkpt>
      <trkpt lat="43.42384" lon="2.62616">
        <ele>734.58</ele>
        <time>2015-06-29T08:50:54Z</time>
      </trkpt>
      <trkpt lat="43.4237" lon="2.62623">
        <ele>732.18</ele>
        <time>2015-06-29T08:51:11Z</time>
      </trkpt>
      <trkpt lat="43.42353" lon="2.62635">
        <ele>729.3</ele>
        <time>2015-06-29T08:51:26Z</time>
      </trkpt>
      <trkpt lat="43.42349" lon="2.62646">
        <ele>726.41</ele>
        <time>2015-06-29T08:51:43Z</time>
      </trkpt>
      <trkpt lat="43.42336" lon="2.62649">
        <ele>724.01</ele>
        <time>2015-06-29T08:51:59Z</time>
      </trkpt>
      <trkpt lat="43.42322" lon="2.62657">
        <ele>722.57</ele>
        <time>2015-06-29T08:52:15Z</time>
      </trkpt>
      <trkpt lat="43.42315" lon="2.6266">
        <ele>721.61</ele>
        <time>2015-06-29T08:52:33Z</time>
      </trkpt>
      <trkpt lat="43.42311" lon="2.62664">
        <ele>720.16</ele>
        <time>2015-06-29T08:52:51Z</time>
      </trkpt>
      <trkpt lat="43.42304" lon="2.62668">
        <ele>719.68</ele>
        <time>2015-06-29T08:52:58Z</time>
      </trkpt>
      <trkpt lat="43.42286" lon="2.62672">
        <ele>717.28</ele>
        <time>2015-06-29T08:53:14Z</time>
      </trkpt>
      <trkpt lat="43.42272" lon="2.62685">
        <ele>715.84</ele>
        <time>2015-06-29T08:53:28Z</time>
      </trkpt>
      <trkpt lat="43.42269" lon="2.62689">
        <ele>715.36</ele>
        <time>2015-06-29T08:53:32Z</time>
      </trkpt>
      <trkpt lat="43.42255" lon="2.62707">
        <ele>712.47</ele>
        <time>2015-06-29T08:53:50Z</time>
      </trkpt>
      <trkpt lat="43.42242" lon="2.62718">
        <ele>709.59</ele>
        <time>2015-06-29T08:54:04Z</time>
      </trkpt>
      <trkpt lat="43.4223" lon="2.6273">
        <ele>707.67</ele>
        <time>2015-06-29T08:54:18Z</time>
      </trkpt>
      <trkpt lat="43.42224" lon="2.62746">
        <ele>703.82</ele>
        <time>2015-06-29T08:54:30Z</time>
      </trkpt>
      <trkpt lat="43.42219" lon="2.62766">
        <ele>703.34</ele>
        <time>2015-06-29T08:54:45Z</time>
      </trkpt>
      <trkpt lat="43.42208" lon="2.62779">
        <ele>700.94</ele>
        <time>2015-06-29T08:55:00Z</time>
      </trkpt>
      <trkpt lat="43.42204" lon="2.62778">
        <ele>699.98</ele>
        <time>2015-06-29T08:55:12Z</time>
      </trkpt>
      <trkpt lat="43.42207" lon="2.62778">
        <ele>701.42</ele>
        <time>2015-06-29T08:55:30Z</time>
      </trkpt>
      <trkpt lat="43.42214" lon="2.62786">
        <ele>700.94</ele>
        <time>2015-06-29T08:55:46Z</time>
      </trkpt>
      <trkpt lat="43.42214" lon="2.62789">
        <ele>700.94</ele>
        <time>2015-06-29T08:56:02Z</time>
      </trkpt>
      <trkpt lat="43.42212" lon="2.62785">
        <ele>699.98</ele>
        <time>2015-06-29T08:56:19Z</time>
      </trkpt>
      <trkpt lat="43.42209" lon="2.62783">
        <ele>699.5</ele>
        <time>2015-06-29T08:56:40Z</time>
      </trkpt>
      <trkpt lat="43.42205" lon="2.62777">
        <ele>699.5</ele>
        <time>2015-06-29T08:57:01Z</time>
      </trkpt>
      <trkpt lat="43.422" lon="2.62774">
        <ele>699.02</ele>
        <time>2015-06-29T08:57:18Z</time>
      </trkpt>
      <trkpt lat="43.42187" lon="2.62753">
        <ele>696.61</ele>
        <time>2015-06-29T08:57:37Z</time>
      </trkpt>
      <trkpt lat="43.42177" lon="2.62736">
        <ele>695.65</ele>
        <time>2015-06-29T08:57:54Z</time>
      </trkpt>
      <trkpt lat="43.42173" lon="2.62716">
        <ele>695.17</ele>
        <time>2015-06-29T08:58:13Z</time>
      </trkpt>
      <trkpt lat="43.42168" lon="2.62699">
        <ele>693.25</ele>
        <time>2015-06-29T08:58:35Z</time>
      </trkpt>
      <trkpt lat="43.42159" lon="2.62707">
        <ele>692.77</ele>
        <time>2015-06-29T08:58:51Z</time>
      </trkpt>
      <trkpt lat="43.42157" lon="2.62701">
        <ele>693.25</ele>
        <time>2015-06-29T08:59:05Z</time>
      </trkpt>
      <trkpt lat="43.42151" lon="2.62714">
        <ele>691.81</ele>
        <time>2015-06-29T08:59:19Z</time>
      </trkpt>
      <trkpt lat="43.42151" lon="2.62711">
        <ele>690.84</ele>
        <time>2015-06-29T08:59:21Z</time>
      </trkpt>
      <trkpt lat="43.42152" lon="2.62695">
        <ele>688.44</ele>
        <time>2015-06-29T08:59:33Z</time>
      </trkpt>
      <trkpt lat="43.42147" lon="2.62682">
        <ele>686.04</ele>
        <time>2015-06-29T08:59:42Z</time>
      </trkpt>
      <trkpt lat="43.42135" lon="2.62698">
        <ele>684.12</ele>
        <time>2015-06-29T09:00:01Z</time>
      </trkpt>
      <trkpt lat="43.42134" lon="2.62698">
        <ele>680.27</ele>
        <time>2015-06-29T09:00:19Z</time>
      </trkpt>
      <trkpt lat="43.42128" lon="2.62706">
        <ele>678.83</ele>
        <time>2015-06-29T09:00:39Z</time>
      </trkpt>
      <trkpt lat="43.42123" lon="2.62731">
        <ele>675.46</ele>
        <time>2015-06-29T09:00:56Z</time>
      </trkpt>
      <trkpt lat="43.42127" lon="2.6277">
        <ele>673.06</ele>
        <time>2015-06-29T09:01:17Z</time>
      </trkpt>
      <trkpt lat="43.42133" lon="2.62796">
        <ele>671.14</ele>
        <time>2015-06-29T09:01:39Z</time>
      </trkpt>
      <trkpt lat="43.4213" lon="2.62821">
        <ele>669.22</ele>
        <time>2015-06-29T09:01:56Z</time>
      </trkpt>
      <trkpt lat="43.42123" lon="2.62832">
        <ele>667.29</ele>
        <time>2015-06-29T09:02:17Z</time>
      </trkpt>
      <trkpt lat="43.42113" lon="2.62855">
        <ele>666.33</ele>
        <time>2015-06-29T09:02:38Z</time>
      </trkpt>
      <trkpt lat="43.42102" lon="2.62873">
        <ele>665.37</ele>
        <time>2015-06-29T09:02:57Z</time>
      </trkpt>
      <trkpt lat="43.42077" lon="2.62902">
        <ele>664.89</ele>
        <time>2015-06-29T09:03:16Z</time>
      </trkpt>
      <trkpt lat="43.42059" lon="2.62915">
        <ele>664.41</ele>
        <time>2015-06-29T09:03:38Z</time>
      </trkpt>
      <trkpt lat="43.42045" lon="2.62923">
        <ele>664.41</ele>
        <time>2015-06-29T09:03:57Z</time>
      </trkpt>
      <trkpt lat="43.42042" lon="2.62925">
        <ele>664.41</ele>
        <time>2015-06-29T09:04:13Z</time>
      </trkpt>
      <trkpt lat="43.42043" lon="2.62928">
        <ele>664.41</ele>
        <time>2015-06-29T09:04:30Z</time>
      </trkpt>
      <trkpt lat="43.42035" lon="2.62931">
        <ele>664.41</ele>
        <time>2015-06-29T09:04:35Z</time>
      </trkpt>
      <trkpt lat="43.42011" lon="2.62936">
        <ele>663.93</ele>
        <time>2015-06-29T09:04:55Z</time>
      </trkpt>
      <trkpt lat="43.41996" lon="2.62926">
        <ele>664.89</ele>
        <time>2015-06-29T09:05:11Z</time>
      </trkpt>
      <trkpt lat="43.41976" lon="2.62918">
        <ele>665.37</ele>
        <time>2015-06-29T09:05:30Z</time>
      </trkpt>
      <trkpt lat="43.41956" lon="2.6291">
        <ele>666.33</ele>
        <time>2015-06-29T09:05:48Z</time>
      </trkpt>
      <trkpt lat="43.41948" lon="2.62909">
        <ele>666.81</ele>
        <time>2015-06-29T09:05:53Z</time>
      </trkpt>
      <trkpt lat="43.41926" lon="2.629">
        <ele>667.29</ele>
        <time>2015-06-29T09:06:10Z</time>
      </trkpt>
      <trkpt lat="43.41904" lon="2.62887">
        <ele>667.77</ele>
        <time>2015-06-29T09:06:25Z</time>
      </trkpt>
      <trkpt lat="43.41889" lon="2.62882">
        <ele>667.77</ele>
        <time>2015-06-29T09:06:38Z</time>
      </trkpt>
      <trkpt lat="43.41881" lon="2.62879">
        <ele>667.77</ele>
        <time>2015-06-29T09:06:43Z</time>
      </trkpt>
      <trkpt lat="43.41869" lon="2.62872">
        <ele>667.77</ele>
        <time>2015-06-29T09:06:57Z</time>
      </trkpt>
      <trkpt lat="43.41849" lon="2.62865">
        <ele>668.25</ele>
        <time>2015-06-29T09:07:14Z</time>
      </trkpt>
      <trkpt lat="43.41842" lon="2.6286">
        <ele>668.25</ele>
        <time>2015-06-29T09:07:29Z</time>
      </trkpt>
      <trkpt lat="43.41833" lon="2.62856">
        <ele>669.22</ele>
        <time>2015-06-29T09:07:38Z</time>
      </trkpt>
      <trkpt lat="43.41822" lon="2.62851">
        <ele>669.22</ele>
        <time>2015-06-29T09:07:47Z</time>
      </trkpt>
      <trkpt lat="43.41821" lon="2.62849">
        <ele>668.73</ele>
        <time>2015-06-29T09:08:00Z</time>
      </trkpt>
      <trkpt lat="43.41828" lon="2.62853">
        <ele>669.22</ele>
        <time>2015-06-29T09:08:15Z</time>
      </trkpt>
      <trkpt lat="43.4181" lon="2.62845">
        <ele>669.7</ele>
        <time>2015-06-29T09:08:30Z</time>
      </trkpt>
      <trkpt lat="43.41794" lon="2.62836">
        <ele>670.18</ele>
        <time>2015-06-29T09:08:46Z</time>
      </trkpt>
      <trkpt lat="43.41784" lon="2.62831">
        <ele>670.18</ele>
        <time>2015-06-29T09:09:02Z</time>
      </trkpt>
      <trkpt lat="43.41765" lon="2.62816">
        <ele>670.18</ele>
        <time>2015-06-29T09:09:17Z</time>
      </trkpt>
      <trkpt lat="43.41748" lon="2.62808">
        <ele>670.66</ele>
        <time>2015-06-29T09:09:32Z</time>
      </trkpt>
      <trkpt lat="43.41742" lon="2.62808">
        <ele>671.14</ele>
        <time>2015-06-29T09:09:37Z</time>
      </trkpt>
      <trkpt lat="43.41725" lon="2.62821">
        <ele>671.62</ele>
        <time>2015-06-29T09:09:52Z</time>
      </trkpt>
      <trkpt lat="43.41723" lon="2.62834">
        <ele>672.1</ele>
        <time>2015-06-29T09:10:06Z</time>
      </trkpt>
      <trkpt lat="43.41722" lon="2.62837">
        <ele>671.62</ele>
        <time>2015-06-29T09:10:10Z</time>
      </trkpt>
      <trkpt lat="43.41721" lon="2.62846">
        <ele>671.14</ele>
        <time>2015-06-29T09:10:16Z</time>
      </trkpt>
      <trkpt lat="43.41721" lon="2.62872">
        <ele>669.7</ele>
        <time>2015-06-29T09:10:31Z</time>
      </trkpt>
      <trkpt lat="43.41723" lon="2.62894">
        <ele>667.29</ele>
        <time>2015-06-29T09:10:46Z</time>
      </trkpt>
      <trkpt lat="43.41722" lon="2.62898">
        <ele>666.81</ele>
        <time>2015-06-29T09:10:48Z</time>
      </trkpt>
      <trkpt lat="43.4172" lon="2.62901">
        <ele>666.81</ele>
        <time>2015-06-29T09:10:50Z</time>
      </trkpt>
      <trkpt lat="43.41708" lon="2.62899">
        <ele>663.45</ele>
        <time>2015-06-29T09:11:02Z</time>
      </trkpt>
      <trkpt lat="43.41706" lon="2.62898">
        <ele>663.45</ele>
        <time>2015-06-29T09:11:04Z</time>
      </trkpt>
      <trkpt lat="43.41684" lon="2.62888">
        <ele>660.08</ele>
        <time>2015-06-29T09:11:21Z</time>
      </trkpt>
      <trkpt lat="43.41669" lon="2.62879">
        <ele>657.68</ele>
        <time>2015-06-29T09:11:36Z</time>
      </trkpt>
      <trkpt lat="43.41666" lon="2.62875">
        <ele>657.68</ele>
        <time>2015-06-29T09:11:39Z</time>
      </trkpt>
      <trkpt lat="43.41654" lon="2.62866">
        <ele>656.24</ele>
        <time>2015-06-29T09:11:53Z</time>
      </trkpt>
      <trkpt lat="43.41635" lon="2.62856">
        <ele>653.83</ele>
        <time>2015-06-29T09:12:10Z</time>
      </trkpt>
      <trkpt lat="43.41628" lon="2.62854">
        <ele>652.87</ele>
        <time>2015-06-29T09:12:23Z</time>
      </trkpt>
      <trkpt lat="43.41617" lon="2.6285">
        <ele>649.99</ele>
        <time>2015-06-29T09:12:38Z</time>
      </trkpt>
      <trkpt lat="43.41599" lon="2.62852">
        <ele>647.1</ele>
        <time>2015-06-29T09:12:53Z</time>
      </trkpt>
      <trkpt lat="43.41598" lon="2.62852">
        <ele>646.62</ele>
        <time>2015-06-29T09:12:54Z</time>
      </trkpt>
      <trkpt lat="43.41595" lon="2.62854">
        <ele>646.14</ele>
        <time>2015-06-29T09:12:56Z</time>
      </trkpt>
      <trkpt lat="43.41579" lon="2.62866">
        <ele>643.26</ele>
        <time>2015-06-29T09:13:14Z</time>
      </trkpt>
      <trkpt lat="43.41572" lon="2.62878">
        <ele>641.34</ele>
        <time>2015-06-29T09:13:34Z</time>
      </trkpt>
      <trkpt lat="43.4155" lon="2.62905">
        <ele>639.89</ele>
        <time>2015-06-29T09:13:55Z</time>
      </trkpt>
      <trkpt lat="43.41531" lon="2.6292">
        <ele>637.97</ele>
        <time>2015-06-29T09:14:16Z</time>
      </trkpt>
      <trkpt lat="43.41528" lon="2.62928">
        <ele>636.53</ele>
        <time>2015-06-29T09:14:38Z</time>
      </trkpt>
      <trkpt lat="43.41515" lon="2.62965">
        <ele>634.61</ele>
        <time>2015-06-29T09:14:59Z</time>
      </trkpt>
      <trkpt lat="43.41511" lon="2.62976">
        <ele>634.13</ele>
        <time>2015-06-29T09:15:18Z</time>
      </trkpt>
      <trkpt lat="43.41504" lon="2.62996">
        <ele>633.17</ele>
        <time>2015-06-29T09:15:31Z</time>
      </trkpt>
      <trkpt lat="43.41504" lon="2.63034">
        <ele>632.68</ele>
        <time>2015-06-29T09:15:49Z</time>
      </trkpt>
      <trkpt lat="43.41509" lon="2.63053">
        <ele>631.24</ele>
        <time>2015-06-29T09:16:07Z</time>
      </trkpt>
      <trkpt lat="43.41521" lon="2.63071">
        <ele>628.84</ele>
        <time>2015-06-29T09:16:25Z</time>
      </trkpt>
      <trkpt lat="43.41537" lon="2.63086">
        <ele>625.47</ele>
        <time>2015-06-29T09:16:44Z</time>
      </trkpt>
      <trkpt lat="43.41542" lon="2.63098">
        <ele>623.07</ele>
        <time>2015-06-29T09:17:04Z</time>
      </trkpt>
      <trkpt lat="43.41541" lon="2.6313">
        <ele>620.19</ele>
        <time>2015-06-29T09:17:18Z</time>
      </trkpt>
      <trkpt lat="43.41547" lon="2.63132">
        <ele>617.3</ele>
        <time>2015-06-29T09:17:35Z</time>
      </trkpt>
      <trkpt lat="43.41547" lon="2.63144">
        <ele>613.94</ele>
        <time>2015-06-29T09:17:52Z</time>
      </trkpt>
      <trkpt lat="43.4154" lon="2.63168">
        <ele>611.06</ele>
        <time>2015-06-29T09:18:12Z</time>
      </trkpt>
      <trkpt lat="43.41532" lon="2.63198">
        <ele>608.17</ele>
        <time>2015-06-29T09:18:31Z</time>
      </trkpt>
      <trkpt lat="43.41529" lon="2.63205">
        <ele>605.29</ele>
        <time>2015-06-29T09:18:49Z</time>
      </trkpt>
      <trkpt lat="43.41524" lon="2.63219">
        <ele>602.4</ele>
        <time>2015-06-29T09:19:08Z</time>
      </trkpt>
      <trkpt lat="43.4152" lon="2.63238">
        <ele>600</ele>
        <time>2015-06-29T09:19:25Z</time>
      </trkpt>
      <trkpt lat="43.41506" lon="2.63297">
        <ele>598.08</ele>
        <time>2015-06-29T09:19:43Z</time>
      </trkpt>
      <trkpt lat="43.41504" lon="2.63318">
        <ele>595.67</ele>
        <time>2015-06-29T09:20:00Z</time>
      </trkpt>
      <trkpt lat="43.41503" lon="2.63326">
        <ele>593.75</ele>
        <time>2015-06-29T09:20:15Z</time>
      </trkpt>
      <trkpt lat="43.41504" lon="2.63338">
        <ele>590.39</ele>
        <time>2015-06-29T09:20:35Z</time>
      </trkpt>
      <trkpt lat="43.41503" lon="2.63361">
        <ele>588.46</ele>
        <time>2015-06-29T09:20:55Z</time>
      </trkpt>
      <trkpt lat="43.41502" lon="2.6337">
        <ele>586.54</ele>
        <time>2015-06-29T09:21:14Z</time>
      </trkpt>
      <trkpt lat="43.41501" lon="2.63386">
        <ele>583.18</ele>
        <time>2015-06-29T09:21:32Z</time>
      </trkpt>
      <trkpt lat="43.41482" lon="2.63426">
        <ele>581.25</ele>
        <time>2015-06-29T09:21:48Z</time>
      </trkpt>
      <trkpt lat="43.41457" lon="2.63481">
        <ele>577.89</ele>
        <time>2015-06-29T09:22:07Z</time>
      </trkpt>
      <trkpt lat="43.41439" lon="2.63507">
        <ele>575.49</ele>
        <time>2015-06-29T09:22:26Z</time>
      </trkpt>
      <trkpt lat="43.41418" lon="2.63512">
        <ele>572.6</ele>
        <time>2015-06-29T09:22:45Z</time>
      </trkpt>
      <trkpt lat="43.414" lon="2.63513">
        <ele>570.68</ele>
        <time>2015-06-29T09:23:04Z</time>
      </trkpt>
      <trkpt lat="43.41393" lon="2.6352">
        <ele>567.8</ele>
        <time>2015-06-29T09:23:23Z</time>
      </trkpt>
      <trkpt lat="43.41392" lon="2.63518">
        <ele>566.83</ele>
        <time>2015-06-29T09:23:43Z</time>
      </trkpt>
      <trkpt lat="43.41388" lon="2.63532">
        <ele>565.87</ele>
        <time>2015-06-29T09:24:00Z</time>
      </trkpt>
      <trkpt lat="43.41387" lon="2.6353">
        <ele>564.91</ele>
        <time>2015-06-29T09:24:22Z</time>
      </trkpt>
      <trkpt lat="43.41373" lon="2.6355">
        <ele>562.99</ele>
        <time>2015-06-29T09:24:38Z</time>
      </trkpt>
      <trkpt lat="43.41353" lon="2.63567">
        <ele>559.62</ele>
        <time>2015-06-29T09:24:57Z</time>
      </trkpt>
      <trkpt lat="43.4134" lon="2.63569">
        <ele>557.22</ele>
        <time>2015-06-29T09:25:14Z</time>
      </trkpt>
      <trkpt lat="43.41338" lon="2.63569">
        <ele>557.22</ele>
        <time>2015-06-29T09:25:16Z</time>
      </trkpt>
      <trkpt lat="43.41335" lon="2.63571">
        <ele>556.74</ele>
        <time>2015-06-29T09:25:18Z</time>
      </trkpt>
      <trkpt lat="43.41316" lon="2.63575">
        <ele>553.86</ele>
        <time>2015-06-29T09:25:34Z</time>
      </trkpt>
      <trkpt lat="43.41301" lon="2.63568">
        <ele>550.97</ele>
        <time>2015-06-29T09:25:52Z</time>
      </trkpt>
      <trkpt lat="43.41283" lon="2.63566">
        <ele>548.57</ele>
        <time>2015-06-29T09:26:08Z</time>
      </trkpt>
      <trkpt lat="43.41264" lon="2.6356">
        <ele>547.61</ele>
        <time>2015-06-29T09:26:24Z</time>
      </trkpt>
      <trkpt lat="43.41258" lon="2.63558">
        <ele>546.17</ele>
        <time>2015-06-29T09:26:48Z</time>
      </trkpt>
      <trkpt lat="43.41241" lon="2.63554">
        <ele>544.72</ele>
        <time>2015-06-29T09:27:04Z</time>
      </trkpt>
      <trkpt lat="43.41217" lon="2.63552">
        <ele>542.32</ele>
        <time>2015-06-29T09:27:21Z</time>
      </trkpt>
      <trkpt lat="43.41204" lon="2.63551">
        <ele>541.84</ele>
        <time>2015-06-29T09:27:34Z</time>
      </trkpt>
      <trkpt lat="43.41182" lon="2.63552">
        <ele>539.44</ele>
        <time>2015-06-29T09:27:52Z</time>
      </trkpt>
      <trkpt lat="43.41156" lon="2.63558">
        <ele>537.99</ele>
        <time>2015-06-29T09:28:11Z</time>
      </trkpt>
      <trkpt lat="43.41138" lon="2.63552">
        <ele>537.03</ele>
        <time>2015-06-29T09:28:29Z</time>
      </trkpt>
      <trkpt lat="43.41117" lon="2.63545">
        <ele>535.59</ele>
        <time>2015-06-29T09:28:46Z</time>
      </trkpt>
      <trkpt lat="43.41098" lon="2.63539">
        <ele>534.15</ele>
        <time>2015-06-29T09:29:03Z</time>
      </trkpt>
      <trkpt lat="43.41071" lon="2.63533">
        <ele>532.71</ele>
        <time>2015-06-29T09:29:23Z</time>
      </trkpt>
      <trkpt lat="43.41049" lon="2.63517">
        <ele>531.27</ele>
        <time>2015-06-29T09:29:41Z</time>
      </trkpt>
      <trkpt lat="43.41042" lon="2.63509">
        <ele>530.3</ele>
        <time>2015-06-29T09:30:00Z</time>
      </trkpt>
      <trkpt lat="43.41014" lon="2.63496">
        <ele>528.38</ele>
        <time>2015-06-29T09:30:20Z</time>
      </trkpt>
      <trkpt lat="43.40997" lon="2.63488">
        <ele>526.94</ele>
        <time>2015-06-29T09:30:41Z</time>
      </trkpt>
      <trkpt lat="43.40985" lon="2.63493">
        <ele>525.5</ele>
        <time>2015-06-29T09:30:56Z</time>
      </trkpt>
      <trkpt lat="43.40968" lon="2.63488">
        <ele>524.06</ele>
        <time>2015-06-29T09:31:13Z</time>
      </trkpt>
      <trkpt lat="43.40952" lon="2.63479">
        <ele>522.61</ele>
        <time>2015-06-29T09:31:28Z</time>
      </trkpt>
      <trkpt lat="43.40925" lon="2.63447">
        <ele>519.25</ele>
        <time>2015-06-29T09:31:48Z</time>
      </trkpt>
      <trkpt lat="43.40914" lon="2.6344">
        <ele>516.85</ele>
        <time>2015-06-29T09:32:01Z</time>
      </trkpt>
      <trkpt lat="43.40893" lon="2.63451">
        <ele>513.96</ele>
        <time>2015-06-29T09:32:20Z</time>
      </trkpt>
      <trkpt lat="43.40873" lon="2.63441">
        <ele>512.04</ele>
        <time>2015-06-29T09:32:38Z</time>
      </trkpt>
      <trkpt lat="43.40856" lon="2.63442">
        <ele>509.64</ele>
        <time>2015-06-29T09:32:57Z</time>
      </trkpt>
      <trkpt lat="43.40834" lon="2.63448">
        <ele>506.75</ele>
        <time>2015-06-29T09:33:15Z</time>
      </trkpt>
      <trkpt lat="43.40814" lon="2.63446">
        <ele>504.83</ele>
        <time>2015-06-29T09:33:31Z</time>
      </trkpt>
      <trkpt lat="43.40797" lon="2.63434">
        <ele>503.39</ele>
        <time>2015-06-29T09:33:50Z</time>
      </trkpt>
      <trkpt lat="43.40781" lon="2.6344">
        <ele>502.43</ele>
        <time>2015-06-29T09:34:12Z</time>
      </trkpt>
      <trkpt lat="43.40756" lon="2.63436">
        <ele>500.5</ele>
        <time>2015-06-29T09:34:35Z</time>
      </trkpt>
      <trkpt lat="43.40734" lon="2.63432">
        <ele>497.62</ele>
        <time>2015-06-29T09:34:57Z</time>
      </trkpt>
      <trkpt lat="43.40717" lon="2.63431">
        <ele>496.66</ele>
        <time>2015-06-29T09:35:16Z</time>
      </trkpt>
      <trkpt lat="43.40714" lon="2.6343">
        <ele>496.18</ele>
        <time>2015-06-29T09:35:18Z</time>
      </trkpt>
      <trkpt lat="43.40693" lon="2.63397">
        <ele>496.18</ele>
        <time>2015-06-29T09:35:35Z</time>
      </trkpt>
      <trkpt lat="43.4067" lon="2.63388">
        <ele>494.74</ele>
        <time>2015-06-29T09:35:55Z</time>
      </trkpt>
      <trkpt lat="43.40663" lon="2.63382">
        <ele>498.58</ele>
        <time>2015-06-29T09:35:58Z</time>
      </trkpt>
      <trkpt lat="43.40659" lon="2.63379">
        <ele>495.22</ele>
        <time>2015-06-29T09:36:00Z</time>
      </trkpt>
      <trkpt lat="43.40657" lon="2.63378">
        <ele>495.22</ele>
        <time>2015-06-29T09:36:01Z</time>
      </trkpt>
      <trkpt lat="43.40642" lon="2.63368">
        <ele>492.33</ele>
        <time>2015-06-29T09:36:12Z</time>
      </trkpt>
      <trkpt lat="43.4064" lon="2.63369">
        <ele>496.66</ele>
        <time>2015-06-29T09:36:14Z</time>
      </trkpt>
      <trkpt lat="43.40638" lon="2.6337">
        <ele>492.81</ele>
        <time>2015-06-29T09:36:17Z</time>
      </trkpt>
      <trkpt lat="43.40637" lon="2.6337">
        <ele>495.22</ele>
        <time>2015-06-29T09:36:18Z</time>
      </trkpt>
      <trkpt lat="43.40634" lon="2.6337">
        <ele>496.66</ele>
        <time>2015-06-29T09:36:20Z</time>
      </trkpt>
      <trkpt lat="43.40633" lon="2.6337">
        <ele>493.77</ele>
        <time>2015-06-29T09:36:21Z</time>
      </trkpt>
      <trkpt lat="43.40615" lon="2.63364">
        <ele>492.81</ele>
        <time>2015-06-29T09:36:37Z</time>
      </trkpt>
      <trkpt lat="43.40592" lon="2.63358">
        <ele>491.85</ele>
        <time>2015-06-29T09:36:59Z</time>
      </trkpt>
      <trkpt lat="43.40581" lon="2.63356">
        <ele>488.49</ele>
        <time>2015-06-29T09:37:11Z</time>
      </trkpt>
      <trkpt lat="43.40575" lon="2.63351">
        <ele>487.05</ele>
        <time>2015-06-29T09:37:20Z</time>
      </trkpt>
      <trkpt lat="43.40562" lon="2.63337">
        <ele>484.64</ele>
        <time>2015-06-29T09:37:37Z</time>
      </trkpt>
      <trkpt lat="43.40545" lon="2.63319">
        <ele>483.68</ele>
        <time>2015-06-29T09:37:56Z</time>
      </trkpt>
      <trkpt lat="43.40531" lon="2.63306">
        <ele>480.8</ele>
        <time>2015-06-29T09:38:13Z</time>
      </trkpt>
      <trkpt lat="43.40518" lon="2.63282">
        <ele>479.84</ele>
        <time>2015-06-29T09:38:33Z</time>
      </trkpt>
      <trkpt lat="43.40502" lon="2.63259">
        <ele>476.95</ele>
        <time>2015-06-29T09:38:43Z</time>
      </trkpt>
      <trkpt lat="43.40492" lon="2.63243">
        <ele>475.99</ele>
        <time>2015-06-29T09:39:01Z</time>
      </trkpt>
      <trkpt lat="43.40489" lon="2.63241">
        <ele>472.14</ele>
        <time>2015-06-29T09:39:14Z</time>
      </trkpt>
      <trkpt lat="43.40489" lon="2.63241">
        <ele>476.47</ele>
        <time>2015-06-29T09:39:17Z</time>
      </trkpt>
      <trkpt lat="43.40487" lon="2.6324">
        <ele>471.18</ele>
        <time>2015-06-29T09:39:20Z</time>
      </trkpt>
      <trkpt lat="43.40483" lon="2.63242">
        <ele>470.7</ele>
        <time>2015-06-29T09:39:29Z</time>
      </trkpt>
      <trkpt lat="43.40483" lon="2.63242">
        <ele>473.11</ele>
        <time>2015-06-29T09:39:30Z</time>
      </trkpt>
      <trkpt lat="43.40483" lon="2.63243">
        <ele>472.14</ele>
        <time>2015-06-29T09:39:31Z</time>
      </trkpt>
      <trkpt lat="43.40482" lon="2.63244">
        <ele>469.74</ele>
        <time>2015-06-29T09:39:32Z</time>
      </trkpt>
      <trkpt lat="43.40481" lon="2.63245">
        <ele>468.3</ele>
        <time>2015-06-29T09:39:33Z</time>
      </trkpt>
      <trkpt lat="43.40481" lon="2.63246">
        <ele>471.18</ele>
        <time>2015-06-29T09:39:34Z</time>
      </trkpt>
      <trkpt lat="43.4048" lon="2.63246">
        <ele>473.59</ele>
        <time>2015-06-29T09:39:35Z</time>
      </trkpt>
      <trkpt lat="43.4048" lon="2.63246">
        <ele>470.7</ele>
        <time>2015-06-29T09:39:36Z</time>
      </trkpt>
      <trkpt lat="43.40475" lon="2.63246">
        <ele>469.26</ele>
        <time>2015-06-29T09:39:42Z</time>
      </trkpt>
      <trkpt lat="43.40458" lon="2.6325">
        <ele>464.93</ele>
        <time>2015-06-29T09:39:56Z</time>
      </trkpt>
      <trkpt lat="43.40458" lon="2.6325">
        <ele>466.86</ele>
        <time>2015-06-29T09:39:57Z</time>
      </trkpt>
      <trkpt lat="43.4045" lon="2.63247">
        <ele>468.3</ele>
        <time>2015-06-29T09:40:01Z</time>
      </trkpt>
      <trkpt lat="43.40435" lon="2.63226">
        <ele>467.82</ele>
        <time>2015-06-29T09:40:08Z</time>
      </trkpt>
      <trkpt lat="43.40449" lon="2.63232">
        <ele>468.3</ele>
        <time>2015-06-29T09:40:28Z</time>
      </trkpt>
      <trkpt lat="43.40453" lon="2.6323">
        <ele>468.3</ele>
        <time>2015-06-29T09:40:35Z</time>
      </trkpt>
      <trkpt lat="43.40461" lon="2.63232">
        <ele>464.93</ele>
        <time>2015-06-29T09:40:43Z</time>
      </trkpt>
      <trkpt lat="43.40462" lon="2.63233">
        <ele>470.22</ele>
        <time>2015-06-29T09:40:44Z</time>
      </trkpt>
      <trkpt lat="43.40472" lon="2.63242">
        <ele>466.86</ele>
        <time>2015-06-29T09:40:57Z</time>
      </trkpt>
      <trkpt lat="43.40469" lon="2.63243">
        <ele>473.11</ele>
        <time>2015-06-29T09:41:16Z</time>
      </trkpt>
      <trkpt lat="43.4047" lon="2.63244">
        <ele>468.78</ele>
        <time>2015-06-29T09:41:17Z</time>
      </trkpt>
      <trkpt lat="43.40473" lon="2.63254">
        <ele>468.3</ele>
        <time>2015-06-29T09:41:31Z</time>
      </trkpt>
    </trkseg>
  </trk>
</gpx>